<?xml version="1.0" encoding="UTF-8" standalone="no" ?>
<gpx xmlns="http://www.topografix.com/GPX/1/1" xmlns:xsi="http://www.w3.org/2001/XMLSchema-instance" xsi:schemaLocation="http://www.topografix.com/GPX/1/1 http://www.topografix.com/GPX/1/1/gpx.xsd" version="1.1" creator="VisuGPX - https://www.visugpx.com">
  <metadata>
    <name>Randonnée a Saint Avit (Landes)</name>
    <desc><![CDATA[Randonnée dans les bois, facile  et agréable 
]]></desc>
  </metadata>
  <wpt lat="43.9473" lon="-0.45485">
    <ele>24</ele>
  </wpt>
  <wpt lat="43.94127" lon="-0.44972">
    <ele>51</ele>
  </wpt>
  <trk>
    <name><![CDATA[Randonnée a Saint Avit (Landes)_1]]></name>
    <trkseg>
      <trkpt lat="43.9473" lon="-0.45485">
        <ele>24</ele>
        <time>2015-05-28T07:29:58Z</time>
      </trkpt>
      <trkpt lat="43.94739" lon="-0.45491">
        <ele>35</ele>
        <time>2015-05-28T07:30:05Z</time>
      </trkpt>
      <trkpt lat="43.94749" lon="-0.45495">
        <ele>40</ele>
        <time>2015-05-28T07:30:13Z</time>
      </trkpt>
      <trkpt lat="43.94757" lon="-0.45499">
        <ele>40</ele>
        <time>2015-05-28T07:30:20Z</time>
      </trkpt>
      <trkpt lat="43.94767" lon="-0.45496">
        <ele>54</ele>
        <time>2015-05-28T07:30:28Z</time>
      </trkpt>
      <trkpt lat="43.94775" lon="-0.455">
        <ele>54</ele>
        <time>2015-05-28T07:30:35Z</time>
      </trkpt>
      <trkpt lat="43.94784" lon="-0.45503">
        <ele>63</ele>
        <time>2015-05-28T07:30:42Z</time>
      </trkpt>
      <trkpt lat="43.94793" lon="-0.45503">
        <ele>63</ele>
        <time>2015-05-28T07:30:48Z</time>
      </trkpt>
      <trkpt lat="43.94802" lon="-0.45509">
        <ele>55</ele>
        <time>2015-05-28T07:30:56Z</time>
      </trkpt>
      <trkpt lat="43.9481" lon="-0.45512">
        <ele>49</ele>
        <time>2015-05-28T07:31:02Z</time>
      </trkpt>
      <trkpt lat="43.94819" lon="-0.45516">
        <ele>49</ele>
        <time>2015-05-28T07:31:09Z</time>
      </trkpt>
      <trkpt lat="43.9483" lon="-0.45519">
        <ele>49</ele>
        <time>2015-05-28T07:31:16Z</time>
      </trkpt>
      <trkpt lat="43.94839" lon="-0.45521">
        <ele>49</ele>
        <time>2015-05-28T07:31:24Z</time>
      </trkpt>
      <trkpt lat="43.94849" lon="-0.45525">
        <ele>36</ele>
        <time>2015-05-28T07:31:31Z</time>
      </trkpt>
      <trkpt lat="43.94858" lon="-0.45528">
        <ele>36</ele>
        <time>2015-05-28T07:31:37Z</time>
      </trkpt>
      <trkpt lat="43.94867" lon="-0.45535">
        <ele>36</ele>
        <time>2015-05-28T07:31:44Z</time>
      </trkpt>
      <trkpt lat="43.94876" lon="-0.4554">
        <ele>36</ele>
        <time>2015-05-28T07:31:51Z</time>
      </trkpt>
      <trkpt lat="43.94884" lon="-0.45545">
        <ele>46</ele>
        <time>2015-05-28T07:31:58Z</time>
      </trkpt>
      <trkpt lat="43.94894" lon="-0.45546">
        <ele>46</ele>
        <time>2015-05-28T07:32:05Z</time>
      </trkpt>
      <trkpt lat="43.94904" lon="-0.45549">
        <ele>40</ele>
        <time>2015-05-28T07:32:13Z</time>
      </trkpt>
      <trkpt lat="43.94912" lon="-0.45553">
        <ele>40</ele>
        <time>2015-05-28T07:32:20Z</time>
      </trkpt>
      <trkpt lat="43.94921" lon="-0.45558">
        <ele>40</ele>
        <time>2015-05-28T07:32:28Z</time>
      </trkpt>
      <trkpt lat="43.9493" lon="-0.45562">
        <ele>45</ele>
        <time>2015-05-28T07:32:33Z</time>
      </trkpt>
      <trkpt lat="43.94939" lon="-0.45567">
        <ele>45</ele>
        <time>2015-05-28T07:32:41Z</time>
      </trkpt>
      <trkpt lat="43.94947" lon="-0.45572">
        <ele>45</ele>
        <time>2015-05-28T07:32:49Z</time>
      </trkpt>
      <trkpt lat="43.94956" lon="-0.45577">
        <ele>45</ele>
        <time>2015-05-28T07:32:57Z</time>
      </trkpt>
      <trkpt lat="43.94964" lon="-0.45581">
        <ele>45</ele>
        <time>2015-05-28T07:33:03Z</time>
      </trkpt>
      <trkpt lat="43.94974" lon="-0.45585">
        <ele>45</ele>
        <time>2015-05-28T07:33:09Z</time>
      </trkpt>
      <trkpt lat="43.94982" lon="-0.45591">
        <ele>45</ele>
        <time>2015-05-28T07:33:17Z</time>
      </trkpt>
      <trkpt lat="43.94992" lon="-0.45597">
        <ele>45</ele>
        <time>2015-05-28T07:33:25Z</time>
      </trkpt>
      <trkpt lat="43.95002" lon="-0.45597">
        <ele>45</ele>
        <time>2015-05-28T07:33:33Z</time>
      </trkpt>
      <trkpt lat="43.95011" lon="-0.45596">
        <ele>45</ele>
        <time>2015-05-28T07:33:39Z</time>
      </trkpt>
      <trkpt lat="43.95022" lon="-0.45595">
        <ele>53</ele>
        <time>2015-05-28T07:33:46Z</time>
      </trkpt>
      <trkpt lat="43.95031" lon="-0.45596">
        <ele>53</ele>
        <time>2015-05-28T07:33:53Z</time>
      </trkpt>
      <trkpt lat="43.9504" lon="-0.45598">
        <ele>53</ele>
        <time>2015-05-28T07:34:00Z</time>
      </trkpt>
      <trkpt lat="43.95049" lon="-0.456">
        <ele>53</ele>
        <time>2015-05-28T07:34:08Z</time>
      </trkpt>
      <trkpt lat="43.95058" lon="-0.45602">
        <ele>53</ele>
        <time>2015-05-28T07:34:15Z</time>
      </trkpt>
      <trkpt lat="43.95068" lon="-0.45605">
        <ele>53</ele>
        <time>2015-05-28T07:34:22Z</time>
      </trkpt>
      <trkpt lat="43.95077" lon="-0.45606">
        <ele>53</ele>
        <time>2015-05-28T07:34:28Z</time>
      </trkpt>
      <trkpt lat="43.95087" lon="-0.45607">
        <ele>53</ele>
        <time>2015-05-28T07:34:36Z</time>
      </trkpt>
      <trkpt lat="43.95096" lon="-0.45608">
        <ele>53</ele>
        <time>2015-05-28T07:34:41Z</time>
      </trkpt>
      <trkpt lat="43.95106" lon="-0.45608">
        <ele>53</ele>
        <time>2015-05-28T07:34:48Z</time>
      </trkpt>
      <trkpt lat="43.95115" lon="-0.45609">
        <ele>53</ele>
        <time>2015-05-28T07:34:55Z</time>
      </trkpt>
      <trkpt lat="43.95124" lon="-0.4561">
        <ele>53</ele>
        <time>2015-05-28T07:35:03Z</time>
      </trkpt>
      <trkpt lat="43.95133" lon="-0.45609">
        <ele>53</ele>
        <time>2015-05-28T07:35:11Z</time>
      </trkpt>
      <trkpt lat="43.95143" lon="-0.45607">
        <ele>59</ele>
        <time>2015-05-28T07:35:17Z</time>
      </trkpt>
      <trkpt lat="43.95152" lon="-0.45606">
        <ele>59</ele>
        <time>2015-05-28T07:35:22Z</time>
      </trkpt>
      <trkpt lat="43.9516" lon="-0.4561">
        <ele>59</ele>
        <time>2015-05-28T07:35:28Z</time>
      </trkpt>
      <trkpt lat="43.95169" lon="-0.45612">
        <ele>59</ele>
        <time>2015-05-28T07:35:33Z</time>
      </trkpt>
      <trkpt lat="43.95179" lon="-0.45614">
        <ele>53</ele>
        <time>2015-05-28T07:35:47Z</time>
      </trkpt>
      <trkpt lat="43.95188" lon="-0.45612">
        <ele>53</ele>
        <time>2015-05-28T07:35:52Z</time>
      </trkpt>
      <trkpt lat="43.952" lon="-0.45614">
        <ele>53</ele>
        <time>2015-05-28T07:36:03Z</time>
      </trkpt>
      <trkpt lat="43.95192" lon="-0.45621">
        <ele>53</ele>
        <time>2015-05-28T07:36:47Z</time>
      </trkpt>
      <trkpt lat="43.952" lon="-0.45615">
        <ele>62</ele>
        <time>2015-05-28T07:37:20Z</time>
      </trkpt>
      <trkpt lat="43.9519" lon="-0.45618">
        <ele>54</ele>
        <time>2015-05-28T07:37:39Z</time>
      </trkpt>
      <trkpt lat="43.95181" lon="-0.45624">
        <ele>44</ele>
        <time>2015-05-28T07:37:48Z</time>
      </trkpt>
      <trkpt lat="43.95191" lon="-0.4562">
        <ele>61</ele>
        <time>2015-05-28T07:38:21Z</time>
      </trkpt>
      <trkpt lat="43.95201" lon="-0.45619">
        <ele>61</ele>
        <time>2015-05-28T07:38:27Z</time>
      </trkpt>
      <trkpt lat="43.95213" lon="-0.45614">
        <ele>61</ele>
        <time>2015-05-28T07:38:36Z</time>
      </trkpt>
      <trkpt lat="43.95222" lon="-0.45616">
        <ele>51</ele>
        <time>2015-05-28T07:38:44Z</time>
      </trkpt>
      <trkpt lat="43.95231" lon="-0.45617">
        <ele>51</ele>
        <time>2015-05-28T07:38:50Z</time>
      </trkpt>
      <trkpt lat="43.9524" lon="-0.45617">
        <ele>46</ele>
        <time>2015-05-28T07:39:00Z</time>
      </trkpt>
      <trkpt lat="43.95249" lon="-0.45617">
        <ele>46</ele>
        <time>2015-05-28T07:39:08Z</time>
      </trkpt>
      <trkpt lat="43.95258" lon="-0.45614">
        <ele>46</ele>
        <time>2015-05-28T07:39:14Z</time>
      </trkpt>
      <trkpt lat="43.95268" lon="-0.45613">
        <ele>52</ele>
        <time>2015-05-28T07:39:19Z</time>
      </trkpt>
      <trkpt lat="43.95278" lon="-0.45617">
        <ele>52</ele>
        <time>2015-05-28T07:39:27Z</time>
      </trkpt>
      <trkpt lat="43.95287" lon="-0.45616">
        <ele>52</ele>
        <time>2015-05-28T07:39:35Z</time>
      </trkpt>
      <trkpt lat="43.95296" lon="-0.45616">
        <ele>61</ele>
        <time>2015-05-28T07:39:43Z</time>
      </trkpt>
      <trkpt lat="43.95305" lon="-0.45619">
        <ele>61</ele>
        <time>2015-05-28T07:39:51Z</time>
      </trkpt>
      <trkpt lat="43.95315" lon="-0.45621">
        <ele>53</ele>
        <time>2015-05-28T07:40:01Z</time>
      </trkpt>
      <trkpt lat="43.95324" lon="-0.45622">
        <ele>42</ele>
        <time>2015-05-28T07:40:15Z</time>
      </trkpt>
      <trkpt lat="43.95333" lon="-0.45619">
        <ele>47</ele>
        <time>2015-05-28T07:40:21Z</time>
      </trkpt>
      <trkpt lat="43.95342" lon="-0.45618">
        <ele>47</ele>
        <time>2015-05-28T07:40:25Z</time>
      </trkpt>
      <trkpt lat="43.95352" lon="-0.45616">
        <ele>53</ele>
        <time>2015-05-28T07:40:32Z</time>
      </trkpt>
      <trkpt lat="43.95361" lon="-0.45619">
        <ele>48</ele>
        <time>2015-05-28T07:40:41Z</time>
      </trkpt>
      <trkpt lat="43.95371" lon="-0.45621">
        <ele>48</ele>
        <time>2015-05-28T07:40:49Z</time>
      </trkpt>
      <trkpt lat="43.95381" lon="-0.45621">
        <ele>48</ele>
        <time>2015-05-28T07:40:56Z</time>
      </trkpt>
      <trkpt lat="43.9539" lon="-0.45619">
        <ele>48</ele>
        <time>2015-05-28T07:41:03Z</time>
      </trkpt>
      <trkpt lat="43.954" lon="-0.45622">
        <ele>48</ele>
        <time>2015-05-28T07:41:11Z</time>
      </trkpt>
      <trkpt lat="43.95409" lon="-0.45623">
        <ele>48</ele>
        <time>2015-05-28T07:41:18Z</time>
      </trkpt>
      <trkpt lat="43.95418" lon="-0.45629">
        <ele>48</ele>
        <time>2015-05-28T07:41:27Z</time>
      </trkpt>
      <trkpt lat="43.95426" lon="-0.45634">
        <ele>48</ele>
        <time>2015-05-28T07:41:35Z</time>
      </trkpt>
      <trkpt lat="43.95435" lon="-0.45634">
        <ele>48</ele>
        <time>2015-05-28T07:41:42Z</time>
      </trkpt>
      <trkpt lat="43.95444" lon="-0.45637">
        <ele>48</ele>
        <time>2015-05-28T07:41:49Z</time>
      </trkpt>
      <trkpt lat="43.95455" lon="-0.45637">
        <ele>57</ele>
        <time>2015-05-28T07:41:55Z</time>
      </trkpt>
      <trkpt lat="43.95464" lon="-0.45635">
        <ele>67</ele>
        <time>2015-05-28T07:42:01Z</time>
      </trkpt>
      <trkpt lat="43.95474" lon="-0.45636">
        <ele>67</ele>
        <time>2015-05-28T07:42:07Z</time>
      </trkpt>
      <trkpt lat="43.95483" lon="-0.45638">
        <ele>67</ele>
        <time>2015-05-28T07:42:15Z</time>
      </trkpt>
      <trkpt lat="43.95492" lon="-0.45638">
        <ele>67</ele>
        <time>2015-05-28T07:42:24Z</time>
      </trkpt>
      <trkpt lat="43.95501" lon="-0.45637">
        <ele>67</ele>
        <time>2015-05-28T07:42:31Z</time>
      </trkpt>
      <trkpt lat="43.9551" lon="-0.45635">
        <ele>67</ele>
        <time>2015-05-28T07:42:38Z</time>
      </trkpt>
      <trkpt lat="43.9552" lon="-0.45646">
        <ele>67</ele>
        <time>2015-05-28T07:42:48Z</time>
      </trkpt>
      <trkpt lat="43.9553" lon="-0.45648">
        <ele>67</ele>
        <time>2015-05-28T07:42:56Z</time>
      </trkpt>
      <trkpt lat="43.95539" lon="-0.45646">
        <ele>67</ele>
        <time>2015-05-28T07:43:03Z</time>
      </trkpt>
      <trkpt lat="43.95549" lon="-0.45643">
        <ele>80</ele>
        <time>2015-05-28T07:43:10Z</time>
      </trkpt>
      <trkpt lat="43.95559" lon="-0.45646">
        <ele>80</ele>
        <time>2015-05-28T07:43:16Z</time>
      </trkpt>
      <trkpt lat="43.95568" lon="-0.45646">
        <ele>73</ele>
        <time>2015-05-28T07:43:27Z</time>
      </trkpt>
      <trkpt lat="43.95577" lon="-0.45651">
        <ele>73</ele>
        <time>2015-05-28T07:43:35Z</time>
      </trkpt>
      <trkpt lat="43.95587" lon="-0.45648">
        <ele>65</ele>
        <time>2015-05-28T07:43:44Z</time>
      </trkpt>
      <trkpt lat="43.95597" lon="-0.45647">
        <ele>65</ele>
        <time>2015-05-28T07:43:53Z</time>
      </trkpt>
      <trkpt lat="43.95607" lon="-0.45646">
        <ele>65</ele>
        <time>2015-05-28T07:44:00Z</time>
      </trkpt>
      <trkpt lat="43.95616" lon="-0.45645">
        <ele>73</ele>
        <time>2015-05-28T07:44:06Z</time>
      </trkpt>
      <trkpt lat="43.95625" lon="-0.45641">
        <ele>73</ele>
        <time>2015-05-28T07:44:12Z</time>
      </trkpt>
      <trkpt lat="43.95634" lon="-0.45639">
        <ele>73</ele>
        <time>2015-05-28T07:44:19Z</time>
      </trkpt>
      <trkpt lat="43.95644" lon="-0.45634">
        <ele>80</ele>
        <time>2015-05-28T07:44:25Z</time>
      </trkpt>
      <trkpt lat="43.95653" lon="-0.45641">
        <ele>80</ele>
        <time>2015-05-28T07:44:33Z</time>
      </trkpt>
      <trkpt lat="43.95661" lon="-0.45636">
        <ele>80</ele>
        <time>2015-05-28T07:44:40Z</time>
      </trkpt>
      <trkpt lat="43.95671" lon="-0.45634">
        <ele>88</ele>
        <time>2015-05-28T07:44:46Z</time>
      </trkpt>
      <trkpt lat="43.95679" lon="-0.45637">
        <ele>88</ele>
        <time>2015-05-28T07:44:55Z</time>
      </trkpt>
      <trkpt lat="43.95688" lon="-0.45641">
        <ele>78</ele>
        <time>2015-05-28T07:45:01Z</time>
      </trkpt>
      <trkpt lat="43.95697" lon="-0.45637">
        <ele>78</ele>
        <time>2015-05-28T07:45:07Z</time>
      </trkpt>
      <trkpt lat="43.95706" lon="-0.45634">
        <ele>83</ele>
        <time>2015-05-28T07:45:14Z</time>
      </trkpt>
      <trkpt lat="43.95715" lon="-0.45632">
        <ele>83</ele>
        <time>2015-05-28T07:45:24Z</time>
      </trkpt>
      <trkpt lat="43.95724" lon="-0.4563">
        <ele>90</ele>
        <time>2015-05-28T07:45:30Z</time>
      </trkpt>
      <trkpt lat="43.95732" lon="-0.45636">
        <ele>71</ele>
        <time>2015-05-28T07:45:41Z</time>
      </trkpt>
      <trkpt lat="43.95743" lon="-0.45634">
        <ele>71</ele>
        <time>2015-05-28T07:45:51Z</time>
      </trkpt>
      <trkpt lat="43.95752" lon="-0.4563">
        <ele>71</ele>
        <time>2015-05-28T07:45:57Z</time>
      </trkpt>
      <trkpt lat="43.95762" lon="-0.45636">
        <ele>71</ele>
        <time>2015-05-28T07:46:02Z</time>
      </trkpt>
      <trkpt lat="43.95771" lon="-0.45639">
        <ele>62</ele>
        <time>2015-05-28T07:46:12Z</time>
      </trkpt>
      <trkpt lat="43.9578" lon="-0.45643">
        <ele>57</ele>
        <time>2015-05-28T07:46:20Z</time>
      </trkpt>
      <trkpt lat="43.95789" lon="-0.45647">
        <ele>57</ele>
        <time>2015-05-28T07:46:29Z</time>
      </trkpt>
      <trkpt lat="43.95797" lon="-0.45651">
        <ele>57</ele>
        <time>2015-05-28T07:46:37Z</time>
      </trkpt>
      <trkpt lat="43.95807" lon="-0.45652">
        <ele>57</ele>
        <time>2015-05-28T07:46:46Z</time>
      </trkpt>
      <trkpt lat="43.95816" lon="-0.45652">
        <ele>57</ele>
        <time>2015-05-28T07:46:51Z</time>
      </trkpt>
      <trkpt lat="43.95825" lon="-0.45651">
        <ele>70</ele>
        <time>2015-05-28T07:46:56Z</time>
      </trkpt>
      <trkpt lat="43.95834" lon="-0.45648">
        <ele>70</ele>
        <time>2015-05-28T07:47:02Z</time>
      </trkpt>
      <trkpt lat="43.95843" lon="-0.45652">
        <ele>70</ele>
        <time>2015-05-28T07:47:12Z</time>
      </trkpt>
      <trkpt lat="43.95852" lon="-0.45657">
        <ele>70</ele>
        <time>2015-05-28T07:47:19Z</time>
      </trkpt>
      <trkpt lat="43.95862" lon="-0.45661">
        <ele>70</ele>
        <time>2015-05-28T07:47:26Z</time>
      </trkpt>
      <trkpt lat="43.95871" lon="-0.45664">
        <ele>70</ele>
        <time>2015-05-28T07:47:33Z</time>
      </trkpt>
      <trkpt lat="43.95881" lon="-0.45663">
        <ele>70</ele>
        <time>2015-05-28T07:47:42Z</time>
      </trkpt>
      <trkpt lat="43.9589" lon="-0.45664">
        <ele>70</ele>
        <time>2015-05-28T07:47:48Z</time>
      </trkpt>
      <trkpt lat="43.959" lon="-0.45666">
        <ele>70</ele>
        <time>2015-05-28T07:47:55Z</time>
      </trkpt>
      <trkpt lat="43.9591" lon="-0.45669">
        <ele>78</ele>
        <time>2015-05-28T07:48:00Z</time>
      </trkpt>
      <trkpt lat="43.95918" lon="-0.45673">
        <ele>78</ele>
        <time>2015-05-28T07:48:08Z</time>
      </trkpt>
      <trkpt lat="43.95926" lon="-0.45678">
        <ele>78</ele>
        <time>2015-05-28T07:48:16Z</time>
      </trkpt>
      <trkpt lat="43.95935" lon="-0.45682">
        <ele>73</ele>
        <time>2015-05-28T07:48:23Z</time>
      </trkpt>
      <trkpt lat="43.95943" lon="-0.45687">
        <ele>73</ele>
        <time>2015-05-28T07:48:31Z</time>
      </trkpt>
      <trkpt lat="43.95953" lon="-0.45687">
        <ele>63</ele>
        <time>2015-05-28T07:48:38Z</time>
      </trkpt>
      <trkpt lat="43.95963" lon="-0.45694">
        <ele>55</ele>
        <time>2015-05-28T07:48:48Z</time>
      </trkpt>
      <trkpt lat="43.95973" lon="-0.45696">
        <ele>55</ele>
        <time>2015-05-28T07:48:56Z</time>
      </trkpt>
      <trkpt lat="43.95982" lon="-0.45699">
        <ele>55</ele>
        <time>2015-05-28T07:49:02Z</time>
      </trkpt>
      <trkpt lat="43.95991" lon="-0.45699">
        <ele>63</ele>
        <time>2015-05-28T07:49:07Z</time>
      </trkpt>
      <trkpt lat="43.96002" lon="-0.457">
        <ele>63</ele>
        <time>2015-05-28T07:49:13Z</time>
      </trkpt>
      <trkpt lat="43.9601" lon="-0.45705">
        <ele>63</ele>
        <time>2015-05-28T07:49:21Z</time>
      </trkpt>
      <trkpt lat="43.96019" lon="-0.4571">
        <ele>63</ele>
        <time>2015-05-28T07:49:27Z</time>
      </trkpt>
      <trkpt lat="43.96029" lon="-0.45714">
        <ele>63</ele>
        <time>2015-05-28T07:49:34Z</time>
      </trkpt>
      <trkpt lat="43.96038" lon="-0.45713">
        <ele>63</ele>
        <time>2015-05-28T07:49:38Z</time>
      </trkpt>
      <trkpt lat="43.96046" lon="-0.45721">
        <ele>69</ele>
        <time>2015-05-28T07:49:46Z</time>
      </trkpt>
      <trkpt lat="43.96051" lon="-0.45731">
        <ele>62</ele>
        <time>2015-05-28T07:49:55Z</time>
      </trkpt>
      <trkpt lat="43.96058" lon="-0.4574">
        <ele>62</ele>
        <time>2015-05-28T07:50:01Z</time>
      </trkpt>
      <trkpt lat="43.96067" lon="-0.45748">
        <ele>52</ele>
        <time>2015-05-28T07:50:11Z</time>
      </trkpt>
      <trkpt lat="43.9608" lon="-0.4575">
        <ele>58</ele>
        <time>2015-05-28T07:50:20Z</time>
      </trkpt>
      <trkpt lat="43.96089" lon="-0.45756">
        <ele>58</ele>
        <time>2015-05-28T07:50:27Z</time>
      </trkpt>
      <trkpt lat="43.96096" lon="-0.45763">
        <ele>58</ele>
        <time>2015-05-28T07:50:36Z</time>
      </trkpt>
      <trkpt lat="43.96104" lon="-0.45771">
        <ele>58</ele>
        <time>2015-05-28T07:50:44Z</time>
      </trkpt>
      <trkpt lat="43.96111" lon="-0.45778">
        <ele>58</ele>
        <time>2015-05-28T07:50:49Z</time>
      </trkpt>
      <trkpt lat="43.96117" lon="-0.45789">
        <ele>58</ele>
        <time>2015-05-28T07:50:56Z</time>
      </trkpt>
      <trkpt lat="43.96125" lon="-0.45798">
        <ele>66</ele>
        <time>2015-05-28T07:51:01Z</time>
      </trkpt>
      <trkpt lat="43.96133" lon="-0.45805">
        <ele>66</ele>
        <time>2015-05-28T07:51:05Z</time>
      </trkpt>
      <trkpt lat="43.96135" lon="-0.45817">
        <ele>61</ele>
        <time>2015-05-28T07:51:17Z</time>
      </trkpt>
      <trkpt lat="43.96145" lon="-0.45817">
        <ele>61</ele>
        <time>2015-05-28T07:51:27Z</time>
      </trkpt>
      <trkpt lat="43.96154" lon="-0.4582">
        <ele>61</ele>
        <time>2015-05-28T07:51:34Z</time>
      </trkpt>
      <trkpt lat="43.96163" lon="-0.45827">
        <ele>61</ele>
        <time>2015-05-28T07:51:41Z</time>
      </trkpt>
      <trkpt lat="43.96171" lon="-0.4583">
        <ele>61</ele>
        <time>2015-05-28T07:51:46Z</time>
      </trkpt>
      <trkpt lat="43.9618" lon="-0.45834">
        <ele>61</ele>
        <time>2015-05-28T07:51:53Z</time>
      </trkpt>
      <trkpt lat="43.96189" lon="-0.45837">
        <ele>61</ele>
        <time>2015-05-28T07:51:59Z</time>
      </trkpt>
      <trkpt lat="43.96198" lon="-0.45839">
        <ele>61</ele>
        <time>2015-05-28T07:52:06Z</time>
      </trkpt>
      <trkpt lat="43.96209" lon="-0.45843">
        <ele>61</ele>
        <time>2015-05-28T07:52:14Z</time>
      </trkpt>
      <trkpt lat="43.96218" lon="-0.45844">
        <ele>61</ele>
        <time>2015-05-28T07:52:22Z</time>
      </trkpt>
      <trkpt lat="43.96228" lon="-0.45844">
        <ele>61</ele>
        <time>2015-05-28T07:52:29Z</time>
      </trkpt>
      <trkpt lat="43.96237" lon="-0.45842">
        <ele>61</ele>
        <time>2015-05-28T07:52:36Z</time>
      </trkpt>
      <trkpt lat="43.96247" lon="-0.45838">
        <ele>61</ele>
        <time>2015-05-28T07:52:42Z</time>
      </trkpt>
      <trkpt lat="43.96256" lon="-0.45835">
        <ele>52</ele>
        <time>2015-05-28T07:52:49Z</time>
      </trkpt>
      <trkpt lat="43.96265" lon="-0.45834">
        <ele>52</ele>
        <time>2015-05-28T07:52:56Z</time>
      </trkpt>
      <trkpt lat="43.96275" lon="-0.45832">
        <ele>52</ele>
        <time>2015-05-28T07:53:03Z</time>
      </trkpt>
      <trkpt lat="43.96285" lon="-0.45832">
        <ele>52</ele>
        <time>2015-05-28T07:53:10Z</time>
      </trkpt>
      <trkpt lat="43.96294" lon="-0.45833">
        <ele>52</ele>
        <time>2015-05-28T07:53:16Z</time>
      </trkpt>
      <trkpt lat="43.96304" lon="-0.45834">
        <ele>52</ele>
        <time>2015-05-28T07:53:23Z</time>
      </trkpt>
      <trkpt lat="43.96313" lon="-0.45835">
        <ele>52</ele>
        <time>2015-05-28T07:53:28Z</time>
      </trkpt>
      <trkpt lat="43.96322" lon="-0.4584">
        <ele>58</ele>
        <time>2015-05-28T07:53:34Z</time>
      </trkpt>
      <trkpt lat="43.9633" lon="-0.45846">
        <ele>58</ele>
        <time>2015-05-28T07:53:38Z</time>
      </trkpt>
      <trkpt lat="43.96339" lon="-0.45851">
        <ele>58</ele>
        <time>2015-05-28T07:53:46Z</time>
      </trkpt>
      <trkpt lat="43.96348" lon="-0.45855">
        <ele>58</ele>
        <time>2015-05-28T07:53:52Z</time>
      </trkpt>
      <trkpt lat="43.96358" lon="-0.45857">
        <ele>58</ele>
        <time>2015-05-28T07:53:57Z</time>
      </trkpt>
      <trkpt lat="43.96367" lon="-0.45861">
        <ele>58</ele>
        <time>2015-05-28T07:54:02Z</time>
      </trkpt>
      <trkpt lat="43.96375" lon="-0.45866">
        <ele>58</ele>
        <time>2015-05-28T07:54:09Z</time>
      </trkpt>
      <trkpt lat="43.96386" lon="-0.45867">
        <ele>58</ele>
        <time>2015-05-28T07:54:14Z</time>
      </trkpt>
      <trkpt lat="43.96395" lon="-0.45868">
        <ele>58</ele>
        <time>2015-05-28T07:54:18Z</time>
      </trkpt>
      <trkpt lat="43.96404" lon="-0.45864">
        <ele>58</ele>
        <time>2015-05-28T07:54:28Z</time>
      </trkpt>
      <trkpt lat="43.96413" lon="-0.45866">
        <ele>58</ele>
        <time>2015-05-28T07:54:40Z</time>
      </trkpt>
      <trkpt lat="43.96423" lon="-0.4587">
        <ele>58</ele>
        <time>2015-05-28T07:54:47Z</time>
      </trkpt>
      <trkpt lat="43.96432" lon="-0.45876">
        <ele>58</ele>
        <time>2015-05-28T07:54:55Z</time>
      </trkpt>
      <trkpt lat="43.9644" lon="-0.45881">
        <ele>58</ele>
        <time>2015-05-28T07:55:02Z</time>
      </trkpt>
      <trkpt lat="43.9645" lon="-0.45883">
        <ele>58</ele>
        <time>2015-05-28T07:55:08Z</time>
      </trkpt>
      <trkpt lat="43.96459" lon="-0.45887">
        <ele>52</ele>
        <time>2015-05-28T07:55:16Z</time>
      </trkpt>
      <trkpt lat="43.96467" lon="-0.4589">
        <ele>52</ele>
        <time>2015-05-28T07:55:22Z</time>
      </trkpt>
      <trkpt lat="43.96477" lon="-0.45895">
        <ele>52</ele>
        <time>2015-05-28T07:55:29Z</time>
      </trkpt>
      <trkpt lat="43.96486" lon="-0.459">
        <ele>52</ele>
        <time>2015-05-28T07:55:37Z</time>
      </trkpt>
      <trkpt lat="43.96494" lon="-0.45904">
        <ele>52</ele>
        <time>2015-05-28T07:55:43Z</time>
      </trkpt>
      <trkpt lat="43.96503" lon="-0.45909">
        <ele>52</ele>
        <time>2015-05-28T07:55:50Z</time>
      </trkpt>
      <trkpt lat="43.96513" lon="-0.45915">
        <ele>52</ele>
        <time>2015-05-28T07:55:56Z</time>
      </trkpt>
      <trkpt lat="43.96521" lon="-0.45921">
        <ele>52</ele>
        <time>2015-05-28T07:56:03Z</time>
      </trkpt>
      <trkpt lat="43.96531" lon="-0.45927">
        <ele>52</ele>
        <time>2015-05-28T07:56:14Z</time>
      </trkpt>
      <trkpt lat="43.9654" lon="-0.45928">
        <ele>52</ele>
        <time>2015-05-28T07:56:22Z</time>
      </trkpt>
      <trkpt lat="43.96549" lon="-0.45928">
        <ele>58</ele>
        <time>2015-05-28T07:56:29Z</time>
      </trkpt>
      <trkpt lat="43.96559" lon="-0.45927">
        <ele>58</ele>
        <time>2015-05-28T07:56:36Z</time>
      </trkpt>
      <trkpt lat="43.96569" lon="-0.45926">
        <ele>64</ele>
        <time>2015-05-28T07:56:42Z</time>
      </trkpt>
      <trkpt lat="43.96579" lon="-0.45926">
        <ele>64</ele>
        <time>2015-05-28T07:56:47Z</time>
      </trkpt>
      <trkpt lat="43.96588" lon="-0.45927">
        <ele>64</ele>
        <time>2015-05-28T07:56:55Z</time>
      </trkpt>
      <trkpt lat="43.96597" lon="-0.45928">
        <ele>64</ele>
        <time>2015-05-28T07:57:06Z</time>
      </trkpt>
      <trkpt lat="43.96606" lon="-0.45926">
        <ele>64</ele>
        <time>2015-05-28T07:57:11Z</time>
      </trkpt>
      <trkpt lat="43.96616" lon="-0.45923">
        <ele>64</ele>
        <time>2015-05-28T07:57:19Z</time>
      </trkpt>
      <trkpt lat="43.96625" lon="-0.45919">
        <ele>64</ele>
        <time>2015-05-28T07:57:25Z</time>
      </trkpt>
      <trkpt lat="43.96635" lon="-0.45918">
        <ele>64</ele>
        <time>2015-05-28T07:57:30Z</time>
      </trkpt>
      <trkpt lat="43.96645" lon="-0.45917">
        <ele>64</ele>
        <time>2015-05-28T07:57:36Z</time>
      </trkpt>
      <trkpt lat="43.96654" lon="-0.45917">
        <ele>64</ele>
        <time>2015-05-28T07:57:42Z</time>
      </trkpt>
      <trkpt lat="43.96664" lon="-0.45917">
        <ele>64</ele>
        <time>2015-05-28T07:57:49Z</time>
      </trkpt>
      <trkpt lat="43.96675" lon="-0.45918">
        <ele>58</ele>
        <time>2015-05-28T07:57:56Z</time>
      </trkpt>
      <trkpt lat="43.96684" lon="-0.45916">
        <ele>58</ele>
        <time>2015-05-28T07:58:04Z</time>
      </trkpt>
      <trkpt lat="43.96694" lon="-0.45917">
        <ele>58</ele>
        <time>2015-05-28T07:58:11Z</time>
      </trkpt>
      <trkpt lat="43.967" lon="-0.45926">
        <ele>58</ele>
        <time>2015-05-28T07:58:19Z</time>
      </trkpt>
      <trkpt lat="43.96705" lon="-0.45937">
        <ele>58</ele>
        <time>2015-05-28T07:58:26Z</time>
      </trkpt>
      <trkpt lat="43.96705" lon="-0.45951">
        <ele>58</ele>
        <time>2015-05-28T07:58:33Z</time>
      </trkpt>
      <trkpt lat="43.96713" lon="-0.4596">
        <ele>58</ele>
        <time>2015-05-28T07:58:40Z</time>
      </trkpt>
      <trkpt lat="43.96721" lon="-0.45969">
        <ele>63</ele>
        <time>2015-05-28T07:58:46Z</time>
      </trkpt>
      <trkpt lat="43.96719" lon="-0.45982">
        <ele>63</ele>
        <time>2015-05-28T07:58:53Z</time>
      </trkpt>
      <trkpt lat="43.96726" lon="-0.45991">
        <ele>63</ele>
        <time>2015-05-28T07:58:59Z</time>
      </trkpt>
      <trkpt lat="43.9673" lon="-0.46003">
        <ele>63</ele>
        <time>2015-05-28T07:59:07Z</time>
      </trkpt>
      <trkpt lat="43.96736" lon="-0.46014">
        <ele>63</ele>
        <time>2015-05-28T07:59:14Z</time>
      </trkpt>
      <trkpt lat="43.96738" lon="-0.46025">
        <ele>63</ele>
        <time>2015-05-28T07:59:21Z</time>
      </trkpt>
      <trkpt lat="43.96745" lon="-0.46032">
        <ele>63</ele>
        <time>2015-05-28T07:59:27Z</time>
      </trkpt>
      <trkpt lat="43.96751" lon="-0.46043">
        <ele>63</ele>
        <time>2015-05-28T07:59:33Z</time>
      </trkpt>
      <trkpt lat="43.96756" lon="-0.46055">
        <ele>63</ele>
        <time>2015-05-28T07:59:40Z</time>
      </trkpt>
      <trkpt lat="43.96758" lon="-0.46069">
        <ele>63</ele>
        <time>2015-05-28T07:59:48Z</time>
      </trkpt>
      <trkpt lat="43.9676" lon="-0.46081">
        <ele>63</ele>
        <time>2015-05-28T07:59:56Z</time>
      </trkpt>
      <trkpt lat="43.96766" lon="-0.46093">
        <ele>63</ele>
        <time>2015-05-28T08:00:04Z</time>
      </trkpt>
      <trkpt lat="43.96771" lon="-0.46105">
        <ele>63</ele>
        <time>2015-05-28T08:00:12Z</time>
      </trkpt>
      <trkpt lat="43.96774" lon="-0.46118">
        <ele>70</ele>
        <time>2015-05-28T08:00:19Z</time>
      </trkpt>
      <trkpt lat="43.96779" lon="-0.46129">
        <ele>70</ele>
        <time>2015-05-28T08:00:26Z</time>
      </trkpt>
      <trkpt lat="43.9678" lon="-0.46143">
        <ele>70</ele>
        <time>2015-05-28T08:00:33Z</time>
      </trkpt>
      <trkpt lat="43.96783" lon="-0.46155">
        <ele>70</ele>
        <time>2015-05-28T08:00:40Z</time>
      </trkpt>
      <trkpt lat="43.96787" lon="-0.46169">
        <ele>70</ele>
        <time>2015-05-28T08:00:47Z</time>
      </trkpt>
      <trkpt lat="43.96792" lon="-0.4618">
        <ele>70</ele>
        <time>2015-05-28T08:00:53Z</time>
      </trkpt>
      <trkpt lat="43.96795" lon="-0.46191">
        <ele>70</ele>
        <time>2015-05-28T08:00:59Z</time>
      </trkpt>
      <trkpt lat="43.96795" lon="-0.46204">
        <ele>70</ele>
        <time>2015-05-28T08:01:07Z</time>
      </trkpt>
      <trkpt lat="43.96795" lon="-0.46217">
        <ele>63</ele>
        <time>2015-05-28T08:01:14Z</time>
      </trkpt>
      <trkpt lat="43.96795" lon="-0.46229">
        <ele>63</ele>
        <time>2015-05-28T08:01:21Z</time>
      </trkpt>
      <trkpt lat="43.96799" lon="-0.4624">
        <ele>63</ele>
        <time>2015-05-28T08:01:28Z</time>
      </trkpt>
      <trkpt lat="43.96806" lon="-0.4625">
        <ele>63</ele>
        <time>2015-05-28T08:01:34Z</time>
      </trkpt>
      <trkpt lat="43.96815" lon="-0.46259">
        <ele>74</ele>
        <time>2015-05-28T08:01:41Z</time>
      </trkpt>
      <trkpt lat="43.96821" lon="-0.46269">
        <ele>74</ele>
        <time>2015-05-28T08:01:47Z</time>
      </trkpt>
      <trkpt lat="43.96829" lon="-0.46275">
        <ele>80</ele>
        <time>2015-05-28T08:01:53Z</time>
      </trkpt>
      <trkpt lat="43.96838" lon="-0.46282">
        <ele>80</ele>
        <time>2015-05-28T08:01:59Z</time>
      </trkpt>
      <trkpt lat="43.96843" lon="-0.46292">
        <ele>80</ele>
        <time>2015-05-28T08:02:08Z</time>
      </trkpt>
      <trkpt lat="43.9685" lon="-0.46301">
        <ele>80</ele>
        <time>2015-05-28T08:02:15Z</time>
      </trkpt>
      <trkpt lat="43.9686" lon="-0.46308">
        <ele>80</ele>
        <time>2015-05-28T08:02:24Z</time>
      </trkpt>
      <trkpt lat="43.96869" lon="-0.46315">
        <ele>80</ele>
        <time>2015-05-28T08:02:30Z</time>
      </trkpt>
      <trkpt lat="43.96875" lon="-0.46325">
        <ele>80</ele>
        <time>2015-05-28T08:02:36Z</time>
      </trkpt>
      <trkpt lat="43.9688" lon="-0.46336">
        <ele>80</ele>
        <time>2015-05-28T08:02:44Z</time>
      </trkpt>
      <trkpt lat="43.96887" lon="-0.46343">
        <ele>80</ele>
        <time>2015-05-28T08:02:51Z</time>
      </trkpt>
      <trkpt lat="43.96896" lon="-0.46352">
        <ele>80</ele>
        <time>2015-05-28T08:02:59Z</time>
      </trkpt>
      <trkpt lat="43.969" lon="-0.46363">
        <ele>72</ele>
        <time>2015-05-28T08:03:05Z</time>
      </trkpt>
      <trkpt lat="43.96909" lon="-0.4637">
        <ele>72</ele>
        <time>2015-05-28T08:03:10Z</time>
      </trkpt>
      <trkpt lat="43.96916" lon="-0.46377">
        <ele>72</ele>
        <time>2015-05-28T08:03:16Z</time>
      </trkpt>
      <trkpt lat="43.96926" lon="-0.46381">
        <ele>72</ele>
        <time>2015-05-28T08:03:19Z</time>
      </trkpt>
      <trkpt lat="43.96924" lon="-0.46394">
        <ele>66</ele>
        <time>2015-05-28T08:03:28Z</time>
      </trkpt>
      <trkpt lat="43.96933" lon="-0.46401">
        <ele>66</ele>
        <time>2015-05-28T08:03:32Z</time>
      </trkpt>
      <trkpt lat="43.96927" lon="-0.46411">
        <ele>66</ele>
        <time>2015-05-28T08:05:14Z</time>
      </trkpt>
      <trkpt lat="43.96918" lon="-0.46416">
        <ele>66</ele>
        <time>2015-05-28T08:06:17Z</time>
      </trkpt>
      <trkpt lat="43.96909" lon="-0.46422">
        <ele>66</ele>
        <time>2015-05-28T08:06:33Z</time>
      </trkpt>
      <trkpt lat="43.96919" lon="-0.4642">
        <ele>66</ele>
        <time>2015-05-28T08:06:54Z</time>
      </trkpt>
      <trkpt lat="43.96927" lon="-0.46413">
        <ele>66</ele>
        <time>2015-05-28T08:07:04Z</time>
      </trkpt>
      <trkpt lat="43.96936" lon="-0.46415">
        <ele>59</ele>
        <time>2015-05-28T08:08:43Z</time>
      </trkpt>
      <trkpt lat="43.96943" lon="-0.46425">
        <ele>59</ele>
        <time>2015-05-28T08:08:50Z</time>
      </trkpt>
      <trkpt lat="43.9695" lon="-0.46432">
        <ele>64</ele>
        <time>2015-05-28T08:08:57Z</time>
      </trkpt>
      <trkpt lat="43.96953" lon="-0.46444">
        <ele>64</ele>
        <time>2015-05-28T08:09:05Z</time>
      </trkpt>
      <trkpt lat="43.96954" lon="-0.46457">
        <ele>64</ele>
        <time>2015-05-28T08:09:13Z</time>
      </trkpt>
      <trkpt lat="43.96956" lon="-0.4647">
        <ele>64</ele>
        <time>2015-05-28T08:09:20Z</time>
      </trkpt>
      <trkpt lat="43.96961" lon="-0.46482">
        <ele>64</ele>
        <time>2015-05-28T08:09:28Z</time>
      </trkpt>
      <trkpt lat="43.96968" lon="-0.46491">
        <ele>64</ele>
        <time>2015-05-28T08:09:35Z</time>
      </trkpt>
      <trkpt lat="43.96975" lon="-0.46499">
        <ele>64</ele>
        <time>2015-05-28T08:09:41Z</time>
      </trkpt>
      <trkpt lat="43.96982" lon="-0.46509">
        <ele>64</ele>
        <time>2015-05-28T08:09:48Z</time>
      </trkpt>
      <trkpt lat="43.9699" lon="-0.46516">
        <ele>64</ele>
        <time>2015-05-28T08:09:55Z</time>
      </trkpt>
      <trkpt lat="43.96996" lon="-0.46526">
        <ele>64</ele>
        <time>2015-05-28T08:10:03Z</time>
      </trkpt>
      <trkpt lat="43.97004" lon="-0.46535">
        <ele>64</ele>
        <time>2015-05-28T08:10:11Z</time>
      </trkpt>
      <trkpt lat="43.97012" lon="-0.46541">
        <ele>64</ele>
        <time>2015-05-28T08:10:18Z</time>
      </trkpt>
      <trkpt lat="43.97019" lon="-0.46548">
        <ele>64</ele>
        <time>2015-05-28T08:10:25Z</time>
      </trkpt>
      <trkpt lat="43.97026" lon="-0.46558">
        <ele>64</ele>
        <time>2015-05-28T08:10:32Z</time>
      </trkpt>
      <trkpt lat="43.97031" lon="-0.46569">
        <ele>64</ele>
        <time>2015-05-28T08:10:38Z</time>
      </trkpt>
      <trkpt lat="43.97036" lon="-0.46579">
        <ele>64</ele>
        <time>2015-05-28T08:10:45Z</time>
      </trkpt>
      <trkpt lat="43.97041" lon="-0.46589">
        <ele>64</ele>
        <time>2015-05-28T08:10:52Z</time>
      </trkpt>
      <trkpt lat="43.97047" lon="-0.466">
        <ele>64</ele>
        <time>2015-05-28T08:10:59Z</time>
      </trkpt>
      <trkpt lat="43.97053" lon="-0.46611">
        <ele>64</ele>
        <time>2015-05-28T08:11:06Z</time>
      </trkpt>
      <trkpt lat="43.97057" lon="-0.46624">
        <ele>64</ele>
        <time>2015-05-28T08:11:13Z</time>
      </trkpt>
      <trkpt lat="43.97059" lon="-0.46636">
        <ele>64</ele>
        <time>2015-05-28T08:11:21Z</time>
      </trkpt>
      <trkpt lat="43.97061" lon="-0.46649">
        <ele>64</ele>
        <time>2015-05-28T08:11:28Z</time>
      </trkpt>
      <trkpt lat="43.97063" lon="-0.46662">
        <ele>64</ele>
        <time>2015-05-28T08:11:36Z</time>
      </trkpt>
      <trkpt lat="43.97062" lon="-0.46676">
        <ele>64</ele>
        <time>2015-05-28T08:11:43Z</time>
      </trkpt>
      <trkpt lat="43.97064" lon="-0.46689">
        <ele>64</ele>
        <time>2015-05-28T08:11:50Z</time>
      </trkpt>
      <trkpt lat="43.97066" lon="-0.46702">
        <ele>64</ele>
        <time>2015-05-28T08:11:57Z</time>
      </trkpt>
      <trkpt lat="43.9707" lon="-0.46714">
        <ele>64</ele>
        <time>2015-05-28T08:12:04Z</time>
      </trkpt>
      <trkpt lat="43.97072" lon="-0.46727">
        <ele>64</ele>
        <time>2015-05-28T08:12:11Z</time>
      </trkpt>
      <trkpt lat="43.97073" lon="-0.46739">
        <ele>64</ele>
        <time>2015-05-28T08:12:18Z</time>
      </trkpt>
      <trkpt lat="43.97076" lon="-0.46751">
        <ele>64</ele>
        <time>2015-05-28T08:12:25Z</time>
      </trkpt>
      <trkpt lat="43.97077" lon="-0.46764">
        <ele>64</ele>
        <time>2015-05-28T08:12:32Z</time>
      </trkpt>
      <trkpt lat="43.97079" lon="-0.46777">
        <ele>64</ele>
        <time>2015-05-28T08:12:39Z</time>
      </trkpt>
      <trkpt lat="43.9708" lon="-0.4679">
        <ele>64</ele>
        <time>2015-05-28T08:12:47Z</time>
      </trkpt>
      <trkpt lat="43.97081" lon="-0.46803">
        <ele>64</ele>
        <time>2015-05-28T08:12:55Z</time>
      </trkpt>
      <trkpt lat="43.97083" lon="-0.46816">
        <ele>64</ele>
        <time>2015-05-28T08:13:02Z</time>
      </trkpt>
      <trkpt lat="43.97084" lon="-0.46829">
        <ele>64</ele>
        <time>2015-05-28T08:13:09Z</time>
      </trkpt>
      <trkpt lat="43.97083" lon="-0.46843">
        <ele>64</ele>
        <time>2015-05-28T08:13:17Z</time>
      </trkpt>
      <trkpt lat="43.97085" lon="-0.46855">
        <ele>59</ele>
        <time>2015-05-28T08:13:24Z</time>
      </trkpt>
      <trkpt lat="43.97086" lon="-0.46868">
        <ele>59</ele>
        <time>2015-05-28T08:13:31Z</time>
      </trkpt>
      <trkpt lat="43.97087" lon="-0.4688">
        <ele>59</ele>
        <time>2015-05-28T08:13:38Z</time>
      </trkpt>
      <trkpt lat="43.97089" lon="-0.46893">
        <ele>59</ele>
        <time>2015-05-28T08:13:45Z</time>
      </trkpt>
      <trkpt lat="43.97092" lon="-0.46905">
        <ele>59</ele>
        <time>2015-05-28T08:13:51Z</time>
      </trkpt>
      <trkpt lat="43.97093" lon="-0.46917">
        <ele>59</ele>
        <time>2015-05-28T08:13:58Z</time>
      </trkpt>
      <trkpt lat="43.97094" lon="-0.46931">
        <ele>64</ele>
        <time>2015-05-28T08:14:05Z</time>
      </trkpt>
      <trkpt lat="43.97094" lon="-0.46943">
        <ele>64</ele>
        <time>2015-05-28T08:14:12Z</time>
      </trkpt>
      <trkpt lat="43.97095" lon="-0.46957">
        <ele>64</ele>
        <time>2015-05-28T08:14:19Z</time>
      </trkpt>
      <trkpt lat="43.97096" lon="-0.46969">
        <ele>64</ele>
        <time>2015-05-28T08:14:26Z</time>
      </trkpt>
      <trkpt lat="43.97098" lon="-0.46982">
        <ele>64</ele>
        <time>2015-05-28T08:14:33Z</time>
      </trkpt>
      <trkpt lat="43.97101" lon="-0.46994">
        <ele>64</ele>
        <time>2015-05-28T08:14:41Z</time>
      </trkpt>
      <trkpt lat="43.97107" lon="-0.47003">
        <ele>64</ele>
        <time>2015-05-28T08:14:47Z</time>
      </trkpt>
      <trkpt lat="43.97114" lon="-0.47012">
        <ele>71</ele>
        <time>2015-05-28T08:14:55Z</time>
      </trkpt>
      <trkpt lat="43.97124" lon="-0.47017">
        <ele>71</ele>
        <time>2015-05-28T08:15:00Z</time>
      </trkpt>
      <trkpt lat="43.97133" lon="-0.47022">
        <ele>71</ele>
        <time>2015-05-28T08:15:06Z</time>
      </trkpt>
      <trkpt lat="43.97141" lon="-0.47026">
        <ele>71</ele>
        <time>2015-05-28T08:15:11Z</time>
      </trkpt>
      <trkpt lat="43.9715" lon="-0.47029">
        <ele>71</ele>
        <time>2015-05-28T08:15:19Z</time>
      </trkpt>
      <trkpt lat="43.97158" lon="-0.47036">
        <ele>71</ele>
        <time>2015-05-28T08:15:27Z</time>
      </trkpt>
      <trkpt lat="43.97166" lon="-0.47043">
        <ele>71</ele>
        <time>2015-05-28T08:15:33Z</time>
      </trkpt>
      <trkpt lat="43.97172" lon="-0.47054">
        <ele>71</ele>
        <time>2015-05-28T08:15:40Z</time>
      </trkpt>
      <trkpt lat="43.97175" lon="-0.47065">
        <ele>71</ele>
        <time>2015-05-28T08:15:47Z</time>
      </trkpt>
      <trkpt lat="43.97179" lon="-0.47077">
        <ele>71</ele>
        <time>2015-05-28T08:15:54Z</time>
      </trkpt>
      <trkpt lat="43.97183" lon="-0.47089">
        <ele>71</ele>
        <time>2015-05-28T08:16:00Z</time>
      </trkpt>
      <trkpt lat="43.97188" lon="-0.471">
        <ele>71</ele>
        <time>2015-05-28T08:16:07Z</time>
      </trkpt>
      <trkpt lat="43.97189" lon="-0.47112">
        <ele>65</ele>
        <time>2015-05-28T08:16:15Z</time>
      </trkpt>
      <trkpt lat="43.97194" lon="-0.47123">
        <ele>65</ele>
        <time>2015-05-28T08:16:21Z</time>
      </trkpt>
      <trkpt lat="43.97198" lon="-0.47136">
        <ele>65</ele>
        <time>2015-05-28T08:16:29Z</time>
      </trkpt>
      <trkpt lat="43.97201" lon="-0.47148">
        <ele>65</ele>
        <time>2015-05-28T08:16:36Z</time>
      </trkpt>
      <trkpt lat="43.97204" lon="-0.4716">
        <ele>65</ele>
        <time>2015-05-28T08:16:42Z</time>
      </trkpt>
      <trkpt lat="43.97207" lon="-0.47173">
        <ele>65</ele>
        <time>2015-05-28T08:16:50Z</time>
      </trkpt>
      <trkpt lat="43.97208" lon="-0.47187">
        <ele>65</ele>
        <time>2015-05-28T08:16:58Z</time>
      </trkpt>
      <trkpt lat="43.97208" lon="-0.472">
        <ele>65</ele>
        <time>2015-05-28T08:17:05Z</time>
      </trkpt>
      <trkpt lat="43.97209" lon="-0.47215">
        <ele>65</ele>
        <time>2015-05-28T08:17:12Z</time>
      </trkpt>
      <trkpt lat="43.97209" lon="-0.47228">
        <ele>65</ele>
        <time>2015-05-28T08:17:20Z</time>
      </trkpt>
      <trkpt lat="43.9721" lon="-0.47242">
        <ele>65</ele>
        <time>2015-05-28T08:17:27Z</time>
      </trkpt>
      <trkpt lat="43.9721" lon="-0.47254">
        <ele>65</ele>
        <time>2015-05-28T08:17:34Z</time>
      </trkpt>
      <trkpt lat="43.97212" lon="-0.47267">
        <ele>65</ele>
        <time>2015-05-28T08:17:41Z</time>
      </trkpt>
      <trkpt lat="43.97216" lon="-0.47278">
        <ele>65</ele>
        <time>2015-05-28T08:17:47Z</time>
      </trkpt>
      <trkpt lat="43.9722" lon="-0.47291">
        <ele>65</ele>
        <time>2015-05-28T08:17:54Z</time>
      </trkpt>
      <trkpt lat="43.97223" lon="-0.47304">
        <ele>65</ele>
        <time>2015-05-28T08:18:01Z</time>
      </trkpt>
      <trkpt lat="43.97224" lon="-0.47317">
        <ele>65</ele>
        <time>2015-05-28T08:18:09Z</time>
      </trkpt>
      <trkpt lat="43.97227" lon="-0.47329">
        <ele>65</ele>
        <time>2015-05-28T08:18:16Z</time>
      </trkpt>
      <trkpt lat="43.97229" lon="-0.47341">
        <ele>65</ele>
        <time>2015-05-28T08:18:23Z</time>
      </trkpt>
      <trkpt lat="43.9723" lon="-0.47354">
        <ele>65</ele>
        <time>2015-05-28T08:18:30Z</time>
      </trkpt>
      <trkpt lat="43.9723" lon="-0.47366">
        <ele>65</ele>
        <time>2015-05-28T08:18:37Z</time>
      </trkpt>
      <trkpt lat="43.97233" lon="-0.47379">
        <ele>65</ele>
        <time>2015-05-28T08:18:43Z</time>
      </trkpt>
      <trkpt lat="43.97236" lon="-0.47391">
        <ele>65</ele>
        <time>2015-05-28T08:18:50Z</time>
      </trkpt>
      <trkpt lat="43.97237" lon="-0.47404">
        <ele>65</ele>
        <time>2015-05-28T08:18:57Z</time>
      </trkpt>
      <trkpt lat="43.97238" lon="-0.47417">
        <ele>65</ele>
        <time>2015-05-28T08:19:04Z</time>
      </trkpt>
      <trkpt lat="43.97238" lon="-0.4743">
        <ele>65</ele>
        <time>2015-05-28T08:19:12Z</time>
      </trkpt>
      <trkpt lat="43.9724" lon="-0.47444">
        <ele>65</ele>
        <time>2015-05-28T08:19:19Z</time>
      </trkpt>
      <trkpt lat="43.97242" lon="-0.47456">
        <ele>65</ele>
        <time>2015-05-28T08:19:26Z</time>
      </trkpt>
      <trkpt lat="43.97244" lon="-0.47471">
        <ele>65</ele>
        <time>2015-05-28T08:19:33Z</time>
      </trkpt>
      <trkpt lat="43.9725" lon="-0.4748">
        <ele>65</ele>
        <time>2015-05-28T08:19:39Z</time>
      </trkpt>
      <trkpt lat="43.97255" lon="-0.47491">
        <ele>65</ele>
        <time>2015-05-28T08:19:47Z</time>
      </trkpt>
      <trkpt lat="43.97258" lon="-0.47503">
        <ele>65</ele>
        <time>2015-05-28T08:19:53Z</time>
      </trkpt>
      <trkpt lat="43.97259" lon="-0.47516">
        <ele>65</ele>
        <time>2015-05-28T08:20:00Z</time>
      </trkpt>
      <trkpt lat="43.97264" lon="-0.47528">
        <ele>72</ele>
        <time>2015-05-28T08:20:07Z</time>
      </trkpt>
      <trkpt lat="43.97266" lon="-0.47541">
        <ele>72</ele>
        <time>2015-05-28T08:20:15Z</time>
      </trkpt>
      <trkpt lat="43.97264" lon="-0.47553">
        <ele>72</ele>
        <time>2015-05-28T08:20:22Z</time>
      </trkpt>
      <trkpt lat="43.9726" lon="-0.47566">
        <ele>72</ele>
        <time>2015-05-28T08:20:29Z</time>
      </trkpt>
      <trkpt lat="43.97259" lon="-0.47579">
        <ele>72</ele>
        <time>2015-05-28T08:20:36Z</time>
      </trkpt>
      <trkpt lat="43.97259" lon="-0.47592">
        <ele>72</ele>
        <time>2015-05-28T08:20:43Z</time>
      </trkpt>
      <trkpt lat="43.97261" lon="-0.47604">
        <ele>72</ele>
        <time>2015-05-28T08:20:50Z</time>
      </trkpt>
      <trkpt lat="43.97267" lon="-0.47615">
        <ele>72</ele>
        <time>2015-05-28T08:20:57Z</time>
      </trkpt>
      <trkpt lat="43.9727" lon="-0.47627">
        <ele>72</ele>
        <time>2015-05-28T08:21:04Z</time>
      </trkpt>
      <trkpt lat="43.9727" lon="-0.4764">
        <ele>72</ele>
        <time>2015-05-28T08:21:12Z</time>
      </trkpt>
      <trkpt lat="43.97271" lon="-0.47653">
        <ele>72</ele>
        <time>2015-05-28T08:21:19Z</time>
      </trkpt>
      <trkpt lat="43.97272" lon="-0.47666">
        <ele>72</ele>
        <time>2015-05-28T08:21:26Z</time>
      </trkpt>
      <trkpt lat="43.97274" lon="-0.4768">
        <ele>72</ele>
        <time>2015-05-28T08:21:34Z</time>
      </trkpt>
      <trkpt lat="43.97275" lon="-0.47693">
        <ele>72</ele>
        <time>2015-05-28T08:21:41Z</time>
      </trkpt>
      <trkpt lat="43.97275" lon="-0.47706">
        <ele>72</ele>
        <time>2015-05-28T08:21:49Z</time>
      </trkpt>
      <trkpt lat="43.97278" lon="-0.47718">
        <ele>72</ele>
        <time>2015-05-28T08:21:56Z</time>
      </trkpt>
      <trkpt lat="43.97277" lon="-0.4773">
        <ele>72</ele>
        <time>2015-05-28T08:22:03Z</time>
      </trkpt>
      <trkpt lat="43.97277" lon="-0.47745">
        <ele>77</ele>
        <time>2015-05-28T08:22:12Z</time>
      </trkpt>
      <trkpt lat="43.97277" lon="-0.47757">
        <ele>77</ele>
        <time>2015-05-28T08:22:18Z</time>
      </trkpt>
      <trkpt lat="43.97277" lon="-0.4777">
        <ele>72</ele>
        <time>2015-05-28T08:22:25Z</time>
      </trkpt>
      <trkpt lat="43.97275" lon="-0.47782">
        <ele>72</ele>
        <time>2015-05-28T08:22:32Z</time>
      </trkpt>
      <trkpt lat="43.97275" lon="-0.47796">
        <ele>72</ele>
        <time>2015-05-28T08:22:40Z</time>
      </trkpt>
      <trkpt lat="43.97273" lon="-0.47808">
        <ele>72</ele>
        <time>2015-05-28T08:22:47Z</time>
      </trkpt>
      <trkpt lat="43.97273" lon="-0.47821">
        <ele>72</ele>
        <time>2015-05-28T08:22:54Z</time>
      </trkpt>
      <trkpt lat="43.97271" lon="-0.47834">
        <ele>72</ele>
        <time>2015-05-28T08:23:01Z</time>
      </trkpt>
      <trkpt lat="43.97271" lon="-0.47846">
        <ele>72</ele>
        <time>2015-05-28T08:23:08Z</time>
      </trkpt>
      <trkpt lat="43.9727" lon="-0.4786">
        <ele>72</ele>
        <time>2015-05-28T08:23:16Z</time>
      </trkpt>
      <trkpt lat="43.9727" lon="-0.47873">
        <ele>72</ele>
        <time>2015-05-28T08:23:23Z</time>
      </trkpt>
      <trkpt lat="43.97272" lon="-0.47886">
        <ele>72</ele>
        <time>2015-05-28T08:23:30Z</time>
      </trkpt>
      <trkpt lat="43.97271" lon="-0.47899">
        <ele>72</ele>
        <time>2015-05-28T08:23:37Z</time>
      </trkpt>
      <trkpt lat="43.97269" lon="-0.47912">
        <ele>72</ele>
        <time>2015-05-28T08:23:44Z</time>
      </trkpt>
      <trkpt lat="43.97267" lon="-0.47924">
        <ele>72</ele>
        <time>2015-05-28T08:23:51Z</time>
      </trkpt>
      <trkpt lat="43.97265" lon="-0.47937">
        <ele>72</ele>
        <time>2015-05-28T08:23:59Z</time>
      </trkpt>
      <trkpt lat="43.97263" lon="-0.47949">
        <ele>72</ele>
        <time>2015-05-28T08:24:06Z</time>
      </trkpt>
      <trkpt lat="43.97262" lon="-0.47964">
        <ele>72</ele>
        <time>2015-05-28T08:24:14Z</time>
      </trkpt>
      <trkpt lat="43.97262" lon="-0.47977">
        <ele>72</ele>
        <time>2015-05-28T08:24:22Z</time>
      </trkpt>
      <trkpt lat="43.97264" lon="-0.47991">
        <ele>72</ele>
        <time>2015-05-28T08:24:29Z</time>
      </trkpt>
      <trkpt lat="43.97264" lon="-0.48003">
        <ele>72</ele>
        <time>2015-05-28T08:24:35Z</time>
      </trkpt>
      <trkpt lat="43.97264" lon="-0.48016">
        <ele>72</ele>
        <time>2015-05-28T08:24:42Z</time>
      </trkpt>
      <trkpt lat="43.97267" lon="-0.48029">
        <ele>72</ele>
        <time>2015-05-28T08:24:49Z</time>
      </trkpt>
      <trkpt lat="43.97268" lon="-0.48043">
        <ele>72</ele>
        <time>2015-05-28T08:24:57Z</time>
      </trkpt>
      <trkpt lat="43.97268" lon="-0.48056">
        <ele>72</ele>
        <time>2015-05-28T08:25:04Z</time>
      </trkpt>
      <trkpt lat="43.97269" lon="-0.48071">
        <ele>72</ele>
        <time>2015-05-28T08:25:11Z</time>
      </trkpt>
      <trkpt lat="43.97268" lon="-0.48083">
        <ele>72</ele>
        <time>2015-05-28T08:25:18Z</time>
      </trkpt>
      <trkpt lat="43.97267" lon="-0.48096">
        <ele>72</ele>
        <time>2015-05-28T08:25:25Z</time>
      </trkpt>
      <trkpt lat="43.97266" lon="-0.48108">
        <ele>72</ele>
        <time>2015-05-28T08:25:45Z</time>
      </trkpt>
      <trkpt lat="43.9727" lon="-0.4812">
        <ele>72</ele>
        <time>2015-05-28T08:25:53Z</time>
      </trkpt>
      <trkpt lat="43.97267" lon="-0.48134">
        <ele>72</ele>
        <time>2015-05-28T08:26:00Z</time>
      </trkpt>
      <trkpt lat="43.97266" lon="-0.48146">
        <ele>72</ele>
        <time>2015-05-28T08:26:07Z</time>
      </trkpt>
      <trkpt lat="43.97266" lon="-0.4816">
        <ele>72</ele>
        <time>2015-05-28T08:26:15Z</time>
      </trkpt>
      <trkpt lat="43.97264" lon="-0.48173">
        <ele>72</ele>
        <time>2015-05-28T08:26:22Z</time>
      </trkpt>
      <trkpt lat="43.97264" lon="-0.48186">
        <ele>72</ele>
        <time>2015-05-28T08:26:30Z</time>
      </trkpt>
      <trkpt lat="43.97264" lon="-0.48198">
        <ele>72</ele>
        <time>2015-05-28T08:26:39Z</time>
      </trkpt>
      <trkpt lat="43.97262" lon="-0.48211">
        <ele>72</ele>
        <time>2015-05-28T08:27:06Z</time>
      </trkpt>
      <trkpt lat="43.97265" lon="-0.48223">
        <ele>78</ele>
        <time>2015-05-28T08:29:11Z</time>
      </trkpt>
      <trkpt lat="43.97268" lon="-0.48234">
        <ele>78</ele>
        <time>2015-05-28T08:29:20Z</time>
      </trkpt>
      <trkpt lat="43.97274" lon="-0.48244">
        <ele>78</ele>
        <time>2015-05-28T08:29:28Z</time>
      </trkpt>
      <trkpt lat="43.97278" lon="-0.48257">
        <ele>78</ele>
        <time>2015-05-28T08:29:38Z</time>
      </trkpt>
      <trkpt lat="43.97286" lon="-0.48266">
        <ele>78</ele>
        <time>2015-05-28T08:29:47Z</time>
      </trkpt>
      <trkpt lat="43.97294" lon="-0.48272">
        <ele>78</ele>
        <time>2015-05-28T08:29:52Z</time>
      </trkpt>
      <trkpt lat="43.97302" lon="-0.48278">
        <ele>78</ele>
        <time>2015-05-28T08:29:57Z</time>
      </trkpt>
      <trkpt lat="43.97305" lon="-0.48291">
        <ele>78</ele>
        <time>2015-05-28T08:30:05Z</time>
      </trkpt>
      <trkpt lat="43.97304" lon="-0.48303">
        <ele>78</ele>
        <time>2015-05-28T08:30:13Z</time>
      </trkpt>
      <trkpt lat="43.97302" lon="-0.48316">
        <ele>78</ele>
        <time>2015-05-28T08:30:21Z</time>
      </trkpt>
      <trkpt lat="43.97303" lon="-0.48329">
        <ele>78</ele>
        <time>2015-05-28T08:30:28Z</time>
      </trkpt>
      <trkpt lat="43.97305" lon="-0.48341">
        <ele>78</ele>
        <time>2015-05-28T08:30:35Z</time>
      </trkpt>
      <trkpt lat="43.97308" lon="-0.48354">
        <ele>78</ele>
        <time>2015-05-28T08:30:43Z</time>
      </trkpt>
      <trkpt lat="43.97307" lon="-0.48366">
        <ele>78</ele>
        <time>2015-05-28T08:30:53Z</time>
      </trkpt>
      <trkpt lat="43.97309" lon="-0.48378">
        <ele>78</ele>
        <time>2015-05-28T08:31:00Z</time>
      </trkpt>
      <trkpt lat="43.97312" lon="-0.4839">
        <ele>78</ele>
        <time>2015-05-28T08:31:06Z</time>
      </trkpt>
      <trkpt lat="43.97313" lon="-0.48402">
        <ele>78</ele>
        <time>2015-05-28T08:31:13Z</time>
      </trkpt>
      <trkpt lat="43.97311" lon="-0.48415">
        <ele>78</ele>
        <time>2015-05-28T08:31:21Z</time>
      </trkpt>
      <trkpt lat="43.97314" lon="-0.48426">
        <ele>78</ele>
        <time>2015-05-28T08:31:28Z</time>
      </trkpt>
      <trkpt lat="43.97319" lon="-0.4844">
        <ele>78</ele>
        <time>2015-05-28T08:31:36Z</time>
      </trkpt>
      <trkpt lat="43.9732" lon="-0.48452">
        <ele>78</ele>
        <time>2015-05-28T08:31:43Z</time>
      </trkpt>
      <trkpt lat="43.97321" lon="-0.48466">
        <ele>78</ele>
        <time>2015-05-28T08:31:51Z</time>
      </trkpt>
      <trkpt lat="43.97326" lon="-0.48478">
        <ele>84</ele>
        <time>2015-05-28T08:31:58Z</time>
      </trkpt>
      <trkpt lat="43.97323" lon="-0.48489">
        <ele>84</ele>
        <time>2015-05-28T08:32:05Z</time>
      </trkpt>
      <trkpt lat="43.97324" lon="-0.48502">
        <ele>84</ele>
        <time>2015-05-28T08:32:13Z</time>
      </trkpt>
      <trkpt lat="43.97327" lon="-0.48514">
        <ele>84</ele>
        <time>2015-05-28T08:32:19Z</time>
      </trkpt>
      <trkpt lat="43.97329" lon="-0.48527">
        <ele>84</ele>
        <time>2015-05-28T08:32:25Z</time>
      </trkpt>
      <trkpt lat="43.97331" lon="-0.4854">
        <ele>84</ele>
        <time>2015-05-28T08:32:33Z</time>
      </trkpt>
      <trkpt lat="43.97333" lon="-0.48553">
        <ele>84</ele>
        <time>2015-05-28T08:32:41Z</time>
      </trkpt>
      <trkpt lat="43.97333" lon="-0.48567">
        <ele>84</ele>
        <time>2015-05-28T08:32:49Z</time>
      </trkpt>
      <trkpt lat="43.97338" lon="-0.48578">
        <ele>84</ele>
        <time>2015-05-28T08:32:55Z</time>
      </trkpt>
      <trkpt lat="43.97335" lon="-0.48591">
        <ele>84</ele>
        <time>2015-05-28T08:33:02Z</time>
      </trkpt>
      <trkpt lat="43.97337" lon="-0.48604">
        <ele>84</ele>
        <time>2015-05-28T08:33:09Z</time>
      </trkpt>
      <trkpt lat="43.9734" lon="-0.48617">
        <ele>84</ele>
        <time>2015-05-28T08:33:16Z</time>
      </trkpt>
      <trkpt lat="43.97342" lon="-0.4863">
        <ele>84</ele>
        <time>2015-05-28T08:33:23Z</time>
      </trkpt>
      <trkpt lat="43.97342" lon="-0.48645">
        <ele>84</ele>
        <time>2015-05-28T08:33:30Z</time>
      </trkpt>
      <trkpt lat="43.97335" lon="-0.48654">
        <ele>84</ele>
        <time>2015-05-28T08:33:35Z</time>
      </trkpt>
      <trkpt lat="43.97327" lon="-0.4866">
        <ele>84</ele>
        <time>2015-05-28T08:33:40Z</time>
      </trkpt>
      <trkpt lat="43.97318" lon="-0.48664">
        <ele>84</ele>
        <time>2015-05-28T08:33:45Z</time>
      </trkpt>
      <trkpt lat="43.9731" lon="-0.48673">
        <ele>84</ele>
        <time>2015-05-28T08:33:50Z</time>
      </trkpt>
      <trkpt lat="43.97301" lon="-0.48676">
        <ele>84</ele>
        <time>2015-05-28T08:33:59Z</time>
      </trkpt>
      <trkpt lat="43.97293" lon="-0.48682">
        <ele>84</ele>
        <time>2015-05-28T08:34:05Z</time>
      </trkpt>
      <trkpt lat="43.97285" lon="-0.48691">
        <ele>89</ele>
        <time>2015-05-28T08:34:10Z</time>
      </trkpt>
      <trkpt lat="43.97277" lon="-0.48697">
        <ele>89</ele>
        <time>2015-05-28T08:34:17Z</time>
      </trkpt>
      <trkpt lat="43.97269" lon="-0.48703">
        <ele>89</ele>
        <time>2015-05-28T08:34:24Z</time>
      </trkpt>
      <trkpt lat="43.9726" lon="-0.48708">
        <ele>89</ele>
        <time>2015-05-28T08:34:31Z</time>
      </trkpt>
      <trkpt lat="43.97252" lon="-0.48711">
        <ele>81</ele>
        <time>2015-05-28T08:34:39Z</time>
      </trkpt>
      <trkpt lat="43.97244" lon="-0.48717">
        <ele>81</ele>
        <time>2015-05-28T08:34:47Z</time>
      </trkpt>
      <trkpt lat="43.97236" lon="-0.48725">
        <ele>75</ele>
        <time>2015-05-28T08:34:54Z</time>
      </trkpt>
      <trkpt lat="43.97227" lon="-0.48728">
        <ele>75</ele>
        <time>2015-05-28T08:35:01Z</time>
      </trkpt>
      <trkpt lat="43.9722" lon="-0.48738">
        <ele>75</ele>
        <time>2015-05-28T08:35:09Z</time>
      </trkpt>
      <trkpt lat="43.97212" lon="-0.48744">
        <ele>70</ele>
        <time>2015-05-28T08:35:15Z</time>
      </trkpt>
      <trkpt lat="43.97203" lon="-0.48751">
        <ele>70</ele>
        <time>2015-05-28T08:35:21Z</time>
      </trkpt>
      <trkpt lat="43.97195" lon="-0.48754">
        <ele>70</ele>
        <time>2015-05-28T08:35:28Z</time>
      </trkpt>
      <trkpt lat="43.97185" lon="-0.48756">
        <ele>81</ele>
        <time>2015-05-28T08:35:36Z</time>
      </trkpt>
      <trkpt lat="43.97176" lon="-0.4876">
        <ele>81</ele>
        <time>2015-05-28T08:35:43Z</time>
      </trkpt>
      <trkpt lat="43.97167" lon="-0.48764">
        <ele>81</ele>
        <time>2015-05-28T08:35:51Z</time>
      </trkpt>
      <trkpt lat="43.97158" lon="-0.48769">
        <ele>81</ele>
        <time>2015-05-28T08:35:58Z</time>
      </trkpt>
      <trkpt lat="43.97148" lon="-0.48772">
        <ele>90</ele>
        <time>2015-05-28T08:36:05Z</time>
      </trkpt>
      <trkpt lat="43.9714" lon="-0.48779">
        <ele>90</ele>
        <time>2015-05-28T08:36:11Z</time>
      </trkpt>
      <trkpt lat="43.97131" lon="-0.48785">
        <ele>90</ele>
        <time>2015-05-28T08:36:19Z</time>
      </trkpt>
      <trkpt lat="43.97122" lon="-0.48788">
        <ele>90</ele>
        <time>2015-05-28T08:36:27Z</time>
      </trkpt>
      <trkpt lat="43.97115" lon="-0.48795">
        <ele>90</ele>
        <time>2015-05-28T08:36:34Z</time>
      </trkpt>
      <trkpt lat="43.97107" lon="-0.48799">
        <ele>90</ele>
        <time>2015-05-28T08:36:41Z</time>
      </trkpt>
      <trkpt lat="43.97098" lon="-0.48805">
        <ele>83</ele>
        <time>2015-05-28T08:36:49Z</time>
      </trkpt>
      <trkpt lat="43.97089" lon="-0.4881">
        <ele>83</ele>
        <time>2015-05-28T08:36:57Z</time>
      </trkpt>
      <trkpt lat="43.97082" lon="-0.48818">
        <ele>83</ele>
        <time>2015-05-28T08:37:04Z</time>
      </trkpt>
      <trkpt lat="43.97074" lon="-0.48824">
        <ele>83</ele>
        <time>2015-05-28T08:37:10Z</time>
      </trkpt>
      <trkpt lat="43.97066" lon="-0.48831">
        <ele>83</ele>
        <time>2015-05-28T08:37:18Z</time>
      </trkpt>
      <trkpt lat="43.97059" lon="-0.48839">
        <ele>83</ele>
        <time>2015-05-28T08:37:25Z</time>
      </trkpt>
      <trkpt lat="43.97051" lon="-0.48846">
        <ele>83</ele>
        <time>2015-05-28T08:37:31Z</time>
      </trkpt>
      <trkpt lat="43.97043" lon="-0.48853">
        <ele>83</ele>
        <time>2015-05-28T08:37:37Z</time>
      </trkpt>
      <trkpt lat="43.97035" lon="-0.4886">
        <ele>83</ele>
        <time>2015-05-28T08:37:44Z</time>
      </trkpt>
      <trkpt lat="43.97026" lon="-0.48866">
        <ele>83</ele>
        <time>2015-05-28T08:37:51Z</time>
      </trkpt>
      <trkpt lat="43.97019" lon="-0.48874">
        <ele>83</ele>
        <time>2015-05-28T08:37:58Z</time>
      </trkpt>
      <trkpt lat="43.97012" lon="-0.48883">
        <ele>83</ele>
        <time>2015-05-28T08:38:04Z</time>
      </trkpt>
      <trkpt lat="43.97004" lon="-0.4889">
        <ele>83</ele>
        <time>2015-05-28T08:38:12Z</time>
      </trkpt>
      <trkpt lat="43.96994" lon="-0.48893">
        <ele>83</ele>
        <time>2015-05-28T08:38:21Z</time>
      </trkpt>
      <trkpt lat="43.96987" lon="-0.489">
        <ele>83</ele>
        <time>2015-05-28T08:38:27Z</time>
      </trkpt>
      <trkpt lat="43.96978" lon="-0.48904">
        <ele>83</ele>
        <time>2015-05-28T08:38:35Z</time>
      </trkpt>
      <trkpt lat="43.96969" lon="-0.48911">
        <ele>83</ele>
        <time>2015-05-28T08:38:41Z</time>
      </trkpt>
      <trkpt lat="43.96959" lon="-0.48912">
        <ele>83</ele>
        <time>2015-05-28T08:38:48Z</time>
      </trkpt>
      <trkpt lat="43.96951" lon="-0.48909">
        <ele>83</ele>
        <time>2015-05-28T08:38:55Z</time>
      </trkpt>
      <trkpt lat="43.96942" lon="-0.48903">
        <ele>78</ele>
        <time>2015-05-28T08:39:03Z</time>
      </trkpt>
      <trkpt lat="43.96933" lon="-0.48903">
        <ele>78</ele>
        <time>2015-05-28T08:39:10Z</time>
      </trkpt>
      <trkpt lat="43.96924" lon="-0.48903">
        <ele>78</ele>
        <time>2015-05-28T08:39:17Z</time>
      </trkpt>
      <trkpt lat="43.96915" lon="-0.48905">
        <ele>86</ele>
        <time>2015-05-28T08:39:23Z</time>
      </trkpt>
      <trkpt lat="43.96905" lon="-0.48902">
        <ele>86</ele>
        <time>2015-05-28T08:39:30Z</time>
      </trkpt>
      <trkpt lat="43.96896" lon="-0.48902">
        <ele>86</ele>
        <time>2015-05-28T08:39:38Z</time>
      </trkpt>
      <trkpt lat="43.96887" lon="-0.48906">
        <ele>79</ele>
        <time>2015-05-28T08:39:45Z</time>
      </trkpt>
      <trkpt lat="43.96878" lon="-0.48908">
        <ele>79</ele>
        <time>2015-05-28T08:39:52Z</time>
      </trkpt>
      <trkpt lat="43.96869" lon="-0.48912">
        <ele>79</ele>
        <time>2015-05-28T08:39:59Z</time>
      </trkpt>
      <trkpt lat="43.96861" lon="-0.48916">
        <ele>73</ele>
        <time>2015-05-28T08:40:06Z</time>
      </trkpt>
      <trkpt lat="43.96851" lon="-0.48915">
        <ele>79</ele>
        <time>2015-05-28T08:40:13Z</time>
      </trkpt>
      <trkpt lat="43.96842" lon="-0.48918">
        <ele>79</ele>
        <time>2015-05-28T08:40:19Z</time>
      </trkpt>
      <trkpt lat="43.96834" lon="-0.48922">
        <ele>79</ele>
        <time>2015-05-28T08:40:25Z</time>
      </trkpt>
      <trkpt lat="43.96824" lon="-0.48922">
        <ele>79</ele>
        <time>2015-05-28T08:40:32Z</time>
      </trkpt>
      <trkpt lat="43.96815" lon="-0.48923">
        <ele>79</ele>
        <time>2015-05-28T08:40:39Z</time>
      </trkpt>
      <trkpt lat="43.96806" lon="-0.48925">
        <ele>79</ele>
        <time>2015-05-28T08:40:46Z</time>
      </trkpt>
      <trkpt lat="43.96796" lon="-0.48927">
        <ele>85</ele>
        <time>2015-05-28T08:40:53Z</time>
      </trkpt>
      <trkpt lat="43.96787" lon="-0.48926">
        <ele>85</ele>
        <time>2015-05-28T08:41:00Z</time>
      </trkpt>
      <trkpt lat="43.96777" lon="-0.48925">
        <ele>85</ele>
        <time>2015-05-28T08:41:08Z</time>
      </trkpt>
      <trkpt lat="43.96768" lon="-0.48928">
        <ele>85</ele>
        <time>2015-05-28T08:41:16Z</time>
      </trkpt>
      <trkpt lat="43.9676" lon="-0.48931">
        <ele>85</ele>
        <time>2015-05-28T08:41:24Z</time>
      </trkpt>
      <trkpt lat="43.96752" lon="-0.48939">
        <ele>77</ele>
        <time>2015-05-28T08:41:31Z</time>
      </trkpt>
      <trkpt lat="43.96745" lon="-0.48946">
        <ele>77</ele>
        <time>2015-05-28T08:41:38Z</time>
      </trkpt>
      <trkpt lat="43.96736" lon="-0.48947">
        <ele>82</ele>
        <time>2015-05-28T08:41:44Z</time>
      </trkpt>
      <trkpt lat="43.96726" lon="-0.4895">
        <ele>82</ele>
        <time>2015-05-28T08:41:51Z</time>
      </trkpt>
      <trkpt lat="43.96718" lon="-0.48956">
        <ele>82</ele>
        <time>2015-05-28T08:41:58Z</time>
      </trkpt>
      <trkpt lat="43.96709" lon="-0.48957">
        <ele>82</ele>
        <time>2015-05-28T08:42:06Z</time>
      </trkpt>
      <trkpt lat="43.96699" lon="-0.48959">
        <ele>82</ele>
        <time>2015-05-28T08:42:13Z</time>
      </trkpt>
      <trkpt lat="43.96691" lon="-0.48963">
        <ele>82</ele>
        <time>2015-05-28T08:42:19Z</time>
      </trkpt>
      <trkpt lat="43.96682" lon="-0.48965">
        <ele>82</ele>
        <time>2015-05-28T08:42:25Z</time>
      </trkpt>
      <trkpt lat="43.96672" lon="-0.48968">
        <ele>82</ele>
        <time>2015-05-28T08:42:34Z</time>
      </trkpt>
      <trkpt lat="43.96662" lon="-0.48971">
        <ele>82</ele>
        <time>2015-05-28T08:42:41Z</time>
      </trkpt>
      <trkpt lat="43.96653" lon="-0.48968">
        <ele>82</ele>
        <time>2015-05-28T08:42:49Z</time>
      </trkpt>
      <trkpt lat="43.96643" lon="-0.48968">
        <ele>82</ele>
        <time>2015-05-28T08:42:56Z</time>
      </trkpt>
      <trkpt lat="43.96634" lon="-0.48969">
        <ele>75</ele>
        <time>2015-05-28T08:43:04Z</time>
      </trkpt>
      <trkpt lat="43.96625" lon="-0.4897">
        <ele>75</ele>
        <time>2015-05-28T08:43:11Z</time>
      </trkpt>
      <trkpt lat="43.96616" lon="-0.48973">
        <ele>75</ele>
        <time>2015-05-28T08:43:18Z</time>
      </trkpt>
      <trkpt lat="43.96606" lon="-0.48974">
        <ele>75</ele>
        <time>2015-05-28T08:43:25Z</time>
      </trkpt>
      <trkpt lat="43.96597" lon="-0.48975">
        <ele>75</ele>
        <time>2015-05-28T08:43:32Z</time>
      </trkpt>
      <trkpt lat="43.96588" lon="-0.48978">
        <ele>75</ele>
        <time>2015-05-28T08:43:40Z</time>
      </trkpt>
      <trkpt lat="43.96579" lon="-0.48982">
        <ele>75</ele>
        <time>2015-05-28T08:43:47Z</time>
      </trkpt>
      <trkpt lat="43.96569" lon="-0.48983">
        <ele>75</ele>
        <time>2015-05-28T08:43:55Z</time>
      </trkpt>
      <trkpt lat="43.9656" lon="-0.48987">
        <ele>75</ele>
        <time>2015-05-28T08:44:02Z</time>
      </trkpt>
      <trkpt lat="43.96551" lon="-0.4899">
        <ele>75</ele>
        <time>2015-05-28T08:44:09Z</time>
      </trkpt>
      <trkpt lat="43.96542" lon="-0.48994">
        <ele>75</ele>
        <time>2015-05-28T08:44:15Z</time>
      </trkpt>
      <trkpt lat="43.96533" lon="-0.48998">
        <ele>75</ele>
        <time>2015-05-28T08:44:22Z</time>
      </trkpt>
      <trkpt lat="43.96523" lon="-0.48999">
        <ele>75</ele>
        <time>2015-05-28T08:44:29Z</time>
      </trkpt>
      <trkpt lat="43.96514" lon="-0.49002">
        <ele>75</ele>
        <time>2015-05-28T08:44:36Z</time>
      </trkpt>
      <trkpt lat="43.96505" lon="-0.49003">
        <ele>75</ele>
        <time>2015-05-28T08:44:44Z</time>
      </trkpt>
      <trkpt lat="43.96496" lon="-0.49007">
        <ele>75</ele>
        <time>2015-05-28T08:44:51Z</time>
      </trkpt>
      <trkpt lat="43.96487" lon="-0.49008">
        <ele>75</ele>
        <time>2015-05-28T08:44:58Z</time>
      </trkpt>
      <trkpt lat="43.96483" lon="-0.48995">
        <ele>75</ele>
        <time>2015-05-28T08:45:05Z</time>
      </trkpt>
      <trkpt lat="43.96482" lon="-0.48982">
        <ele>66</ele>
        <time>2015-05-28T08:45:12Z</time>
      </trkpt>
      <trkpt lat="43.96481" lon="-0.48969">
        <ele>61</ele>
        <time>2015-05-28T08:45:21Z</time>
      </trkpt>
      <trkpt lat="43.96478" lon="-0.48957">
        <ele>61</ele>
        <time>2015-05-28T08:45:25Z</time>
      </trkpt>
      <trkpt lat="43.96475" lon="-0.48945">
        <ele>61</ele>
        <time>2015-05-28T08:45:31Z</time>
      </trkpt>
      <trkpt lat="43.96472" lon="-0.48933">
        <ele>61</ele>
        <time>2015-05-28T08:45:37Z</time>
      </trkpt>
      <trkpt lat="43.96469" lon="-0.48921">
        <ele>61</ele>
        <time>2015-05-28T08:45:44Z</time>
      </trkpt>
      <trkpt lat="43.96466" lon="-0.48909">
        <ele>61</ele>
        <time>2015-05-28T08:45:49Z</time>
      </trkpt>
      <trkpt lat="43.96464" lon="-0.48894">
        <ele>61</ele>
        <time>2015-05-28T08:45:58Z</time>
      </trkpt>
      <trkpt lat="43.96461" lon="-0.48883">
        <ele>61</ele>
        <time>2015-05-28T08:46:04Z</time>
      </trkpt>
      <trkpt lat="43.96458" lon="-0.48871">
        <ele>61</ele>
        <time>2015-05-28T08:46:09Z</time>
      </trkpt>
      <trkpt lat="43.96454" lon="-0.48858">
        <ele>61</ele>
        <time>2015-05-28T08:46:15Z</time>
      </trkpt>
      <trkpt lat="43.96451" lon="-0.48844">
        <ele>61</ele>
        <time>2015-05-28T08:46:22Z</time>
      </trkpt>
      <trkpt lat="43.96448" lon="-0.48832">
        <ele>67</ele>
        <time>2015-05-28T08:46:27Z</time>
      </trkpt>
      <trkpt lat="43.96446" lon="-0.48817">
        <ele>67</ele>
        <time>2015-05-28T08:46:33Z</time>
      </trkpt>
      <trkpt lat="43.96441" lon="-0.48806">
        <ele>72</ele>
        <time>2015-05-28T08:46:37Z</time>
      </trkpt>
      <trkpt lat="43.96438" lon="-0.48818">
        <ele>81</ele>
        <time>2015-05-28T08:46:43Z</time>
      </trkpt>
      <trkpt lat="43.96433" lon="-0.48828">
        <ele>81</ele>
        <time>2015-05-28T08:46:48Z</time>
      </trkpt>
      <trkpt lat="43.96423" lon="-0.48835">
        <ele>81</ele>
        <time>2015-05-28T08:46:55Z</time>
      </trkpt>
      <trkpt lat="43.96414" lon="-0.48839">
        <ele>87</ele>
        <time>2015-05-28T08:47:01Z</time>
      </trkpt>
      <trkpt lat="43.96404" lon="-0.48841">
        <ele>87</ele>
        <time>2015-05-28T08:47:10Z</time>
      </trkpt>
      <trkpt lat="43.96397" lon="-0.48851">
        <ele>76</ele>
        <time>2015-05-28T08:47:17Z</time>
      </trkpt>
      <trkpt lat="43.96388" lon="-0.48853">
        <ele>76</ele>
        <time>2015-05-28T08:47:28Z</time>
      </trkpt>
      <trkpt lat="43.96379" lon="-0.48856">
        <ele>76</ele>
        <time>2015-05-28T08:47:35Z</time>
      </trkpt>
      <trkpt lat="43.96369" lon="-0.48859">
        <ele>76</ele>
        <time>2015-05-28T08:47:44Z</time>
      </trkpt>
      <trkpt lat="43.96359" lon="-0.48862">
        <ele>76</ele>
        <time>2015-05-28T08:47:51Z</time>
      </trkpt>
      <trkpt lat="43.9635" lon="-0.48868">
        <ele>69</ele>
        <time>2015-05-28T08:47:58Z</time>
      </trkpt>
      <trkpt lat="43.96342" lon="-0.48871">
        <ele>69</ele>
        <time>2015-05-28T08:48:04Z</time>
      </trkpt>
      <trkpt lat="43.96331" lon="-0.48874">
        <ele>69</ele>
        <time>2015-05-28T08:48:12Z</time>
      </trkpt>
      <trkpt lat="43.96322" lon="-0.48874">
        <ele>78</ele>
        <time>2015-05-28T08:48:18Z</time>
      </trkpt>
      <trkpt lat="43.96314" lon="-0.48879">
        <ele>78</ele>
        <time>2015-05-28T08:48:24Z</time>
      </trkpt>
      <trkpt lat="43.96304" lon="-0.48881">
        <ele>78</ele>
        <time>2015-05-28T08:48:32Z</time>
      </trkpt>
      <trkpt lat="43.96294" lon="-0.48883">
        <ele>78</ele>
        <time>2015-05-28T08:48:39Z</time>
      </trkpt>
      <trkpt lat="43.96285" lon="-0.48886">
        <ele>85</ele>
        <time>2015-05-28T08:48:45Z</time>
      </trkpt>
      <trkpt lat="43.96277" lon="-0.48892">
        <ele>85</ele>
        <time>2015-05-28T08:48:52Z</time>
      </trkpt>
      <trkpt lat="43.96268" lon="-0.48893">
        <ele>85</ele>
        <time>2015-05-28T08:48:58Z</time>
      </trkpt>
      <trkpt lat="43.96258" lon="-0.48897">
        <ele>85</ele>
        <time>2015-05-28T08:49:07Z</time>
      </trkpt>
      <trkpt lat="43.96249" lon="-0.48902">
        <ele>80</ele>
        <time>2015-05-28T08:49:15Z</time>
      </trkpt>
      <trkpt lat="43.96241" lon="-0.48908">
        <ele>80</ele>
        <time>2015-05-28T08:49:22Z</time>
      </trkpt>
      <trkpt lat="43.96232" lon="-0.48913">
        <ele>80</ele>
        <time>2015-05-28T08:49:29Z</time>
      </trkpt>
      <trkpt lat="43.96223" lon="-0.48916">
        <ele>80</ele>
        <time>2015-05-28T08:49:36Z</time>
      </trkpt>
      <trkpt lat="43.96214" lon="-0.48918">
        <ele>74</ele>
        <time>2015-05-28T08:49:43Z</time>
      </trkpt>
      <trkpt lat="43.96204" lon="-0.48919">
        <ele>80</ele>
        <time>2015-05-28T08:49:50Z</time>
      </trkpt>
      <trkpt lat="43.96194" lon="-0.48921">
        <ele>80</ele>
        <time>2015-05-28T08:49:57Z</time>
      </trkpt>
      <trkpt lat="43.96186" lon="-0.48925">
        <ele>80</ele>
        <time>2015-05-28T08:50:04Z</time>
      </trkpt>
      <trkpt lat="43.96176" lon="-0.48928">
        <ele>80</ele>
        <time>2015-05-28T08:50:12Z</time>
      </trkpt>
      <trkpt lat="43.96167" lon="-0.48932">
        <ele>80</ele>
        <time>2015-05-28T08:50:19Z</time>
      </trkpt>
      <trkpt lat="43.96158" lon="-0.48932">
        <ele>73</ele>
        <time>2015-05-28T08:50:25Z</time>
      </trkpt>
      <trkpt lat="43.96148" lon="-0.48934">
        <ele>73</ele>
        <time>2015-05-28T08:50:34Z</time>
      </trkpt>
      <trkpt lat="43.96138" lon="-0.48935">
        <ele>73</ele>
        <time>2015-05-28T08:50:40Z</time>
      </trkpt>
      <trkpt lat="43.96132" lon="-0.48945">
        <ele>79</ele>
        <time>2015-05-28T08:50:45Z</time>
      </trkpt>
      <trkpt lat="43.96122" lon="-0.48947">
        <ele>79</ele>
        <time>2015-05-28T08:50:53Z</time>
      </trkpt>
      <trkpt lat="43.96113" lon="-0.48953">
        <ele>79</ele>
        <time>2015-05-28T08:50:59Z</time>
      </trkpt>
      <trkpt lat="43.96104" lon="-0.48956">
        <ele>86</ele>
        <time>2015-05-28T08:51:04Z</time>
      </trkpt>
      <trkpt lat="43.96097" lon="-0.48964">
        <ele>73</ele>
        <time>2015-05-28T08:51:13Z</time>
      </trkpt>
      <trkpt lat="43.96088" lon="-0.48966">
        <ele>73</ele>
        <time>2015-05-28T08:51:20Z</time>
      </trkpt>
      <trkpt lat="43.96078" lon="-0.48965">
        <ele>73</ele>
        <time>2015-05-28T08:51:26Z</time>
      </trkpt>
      <trkpt lat="43.96069" lon="-0.4897">
        <ele>73</ele>
        <time>2015-05-28T08:51:34Z</time>
      </trkpt>
      <trkpt lat="43.96059" lon="-0.48971">
        <ele>73</ele>
        <time>2015-05-28T08:51:41Z</time>
      </trkpt>
      <trkpt lat="43.9605" lon="-0.48978">
        <ele>73</ele>
        <time>2015-05-28T08:51:48Z</time>
      </trkpt>
      <trkpt lat="43.96041" lon="-0.48978">
        <ele>82</ele>
        <time>2015-05-28T08:51:54Z</time>
      </trkpt>
      <trkpt lat="43.96035" lon="-0.48989">
        <ele>74</ele>
        <time>2015-05-28T08:52:00Z</time>
      </trkpt>
      <trkpt lat="43.96025" lon="-0.48986">
        <ele>82</ele>
        <time>2015-05-28T08:52:06Z</time>
      </trkpt>
      <trkpt lat="43.96017" lon="-0.48991">
        <ele>76</ele>
        <time>2015-05-28T08:52:15Z</time>
      </trkpt>
      <trkpt lat="43.9601" lon="-0.48999">
        <ele>65</ele>
        <time>2015-05-28T08:52:21Z</time>
      </trkpt>
      <trkpt lat="43.96001" lon="-0.49006">
        <ele>65</ele>
        <time>2015-05-28T08:52:28Z</time>
      </trkpt>
      <trkpt lat="43.95993" lon="-0.49009">
        <ele>57</ele>
        <time>2015-05-28T08:52:35Z</time>
      </trkpt>
      <trkpt lat="43.95983" lon="-0.49009">
        <ele>57</ele>
        <time>2015-05-28T08:52:41Z</time>
      </trkpt>
      <trkpt lat="43.95975" lon="-0.49015">
        <ele>57</ele>
        <time>2015-05-28T08:52:48Z</time>
      </trkpt>
      <trkpt lat="43.95965" lon="-0.49016">
        <ele>65</ele>
        <time>2015-05-28T08:52:55Z</time>
      </trkpt>
      <trkpt lat="43.95956" lon="-0.49019">
        <ele>71</ele>
        <time>2015-05-28T08:53:01Z</time>
      </trkpt>
      <trkpt lat="43.95947" lon="-0.49018">
        <ele>71</ele>
        <time>2015-05-28T08:53:09Z</time>
      </trkpt>
      <trkpt lat="43.95938" lon="-0.49019">
        <ele>71</ele>
        <time>2015-05-28T08:53:17Z</time>
      </trkpt>
      <trkpt lat="43.95928" lon="-0.49022">
        <ele>78</ele>
        <time>2015-05-28T08:53:23Z</time>
      </trkpt>
      <trkpt lat="43.95919" lon="-0.49025">
        <ele>78</ele>
        <time>2015-05-28T08:53:31Z</time>
      </trkpt>
      <trkpt lat="43.95908" lon="-0.49026">
        <ele>85</ele>
        <time>2015-05-28T08:53:37Z</time>
      </trkpt>
      <trkpt lat="43.95899" lon="-0.49027">
        <ele>85</ele>
        <time>2015-05-28T08:53:46Z</time>
      </trkpt>
      <trkpt lat="43.95891" lon="-0.49033">
        <ele>78</ele>
        <time>2015-05-28T08:53:52Z</time>
      </trkpt>
      <trkpt lat="43.95882" lon="-0.49039">
        <ele>67</ele>
        <time>2015-05-28T08:54:01Z</time>
      </trkpt>
      <trkpt lat="43.95873" lon="-0.49044">
        <ele>67</ele>
        <time>2015-05-28T08:54:09Z</time>
      </trkpt>
      <trkpt lat="43.95864" lon="-0.49048">
        <ele>67</ele>
        <time>2015-05-28T08:54:16Z</time>
      </trkpt>
      <trkpt lat="43.95854" lon="-0.49049">
        <ele>67</ele>
        <time>2015-05-28T08:54:23Z</time>
      </trkpt>
      <trkpt lat="43.95846" lon="-0.49055">
        <ele>67</ele>
        <time>2015-05-28T08:54:30Z</time>
      </trkpt>
      <trkpt lat="43.95836" lon="-0.49059">
        <ele>67</ele>
        <time>2015-05-28T08:54:36Z</time>
      </trkpt>
      <trkpt lat="43.95828" lon="-0.49063">
        <ele>67</ele>
        <time>2015-05-28T08:54:43Z</time>
      </trkpt>
      <trkpt lat="43.95819" lon="-0.49066">
        <ele>58</ele>
        <time>2015-05-28T08:54:53Z</time>
      </trkpt>
      <trkpt lat="43.9581" lon="-0.49069">
        <ele>58</ele>
        <time>2015-05-28T08:55:00Z</time>
      </trkpt>
      <trkpt lat="43.95799" lon="-0.4907">
        <ele>58</ele>
        <time>2015-05-28T08:55:08Z</time>
      </trkpt>
      <trkpt lat="43.95789" lon="-0.49072">
        <ele>66</ele>
        <time>2015-05-28T08:55:15Z</time>
      </trkpt>
      <trkpt lat="43.95783" lon="-0.49082">
        <ele>66</ele>
        <time>2015-05-28T08:55:22Z</time>
      </trkpt>
      <trkpt lat="43.95773" lon="-0.49079">
        <ele>66</ele>
        <time>2015-05-28T08:55:29Z</time>
      </trkpt>
      <trkpt lat="43.95764" lon="-0.49081">
        <ele>66</ele>
        <time>2015-05-28T08:55:38Z</time>
      </trkpt>
      <trkpt lat="43.95754" lon="-0.49084">
        <ele>66</ele>
        <time>2015-05-28T08:55:45Z</time>
      </trkpt>
      <trkpt lat="43.95747" lon="-0.49093">
        <ele>66</ele>
        <time>2015-05-28T08:55:51Z</time>
      </trkpt>
      <trkpt lat="43.95739" lon="-0.49097">
        <ele>66</ele>
        <time>2015-05-28T08:55:57Z</time>
      </trkpt>
      <trkpt lat="43.9573" lon="-0.49097">
        <ele>73</ele>
        <time>2015-05-28T08:56:04Z</time>
      </trkpt>
      <trkpt lat="43.95719" lon="-0.49099">
        <ele>73</ele>
        <time>2015-05-28T08:56:12Z</time>
      </trkpt>
      <trkpt lat="43.9571" lon="-0.49105">
        <ele>73</ele>
        <time>2015-05-28T08:56:21Z</time>
      </trkpt>
      <trkpt lat="43.95701" lon="-0.49107">
        <ele>73</ele>
        <time>2015-05-28T08:56:28Z</time>
      </trkpt>
      <trkpt lat="43.95692" lon="-0.4911">
        <ele>73</ele>
        <time>2015-05-28T08:56:36Z</time>
      </trkpt>
      <trkpt lat="43.95682" lon="-0.49111">
        <ele>73</ele>
        <time>2015-05-28T08:56:45Z</time>
      </trkpt>
      <trkpt lat="43.95673" lon="-0.49115">
        <ele>73</ele>
        <time>2015-05-28T08:56:53Z</time>
      </trkpt>
      <trkpt lat="43.95664" lon="-0.49118">
        <ele>73</ele>
        <time>2015-05-28T08:57:00Z</time>
      </trkpt>
      <trkpt lat="43.95657" lon="-0.49124">
        <ele>73</ele>
        <time>2015-05-28T08:57:07Z</time>
      </trkpt>
      <trkpt lat="43.95646" lon="-0.49127">
        <ele>73</ele>
        <time>2015-05-28T08:57:14Z</time>
      </trkpt>
      <trkpt lat="43.95637" lon="-0.4913">
        <ele>73</ele>
        <time>2015-05-28T08:57:22Z</time>
      </trkpt>
      <trkpt lat="43.95628" lon="-0.49133">
        <ele>73</ele>
        <time>2015-05-28T08:57:31Z</time>
      </trkpt>
      <trkpt lat="43.95619" lon="-0.49136">
        <ele>73</ele>
        <time>2015-05-28T08:57:38Z</time>
      </trkpt>
      <trkpt lat="43.95608" lon="-0.49139">
        <ele>73</ele>
        <time>2015-05-28T08:57:45Z</time>
      </trkpt>
      <trkpt lat="43.95599" lon="-0.49139">
        <ele>73</ele>
        <time>2015-05-28T08:57:53Z</time>
      </trkpt>
      <trkpt lat="43.9559" lon="-0.49144">
        <ele>73</ele>
        <time>2015-05-28T08:58:00Z</time>
      </trkpt>
      <trkpt lat="43.95582" lon="-0.49148">
        <ele>73</ele>
        <time>2015-05-28T08:58:08Z</time>
      </trkpt>
      <trkpt lat="43.95573" lon="-0.4915">
        <ele>73</ele>
        <time>2015-05-28T08:58:15Z</time>
      </trkpt>
      <trkpt lat="43.95564" lon="-0.49155">
        <ele>73</ele>
        <time>2015-05-28T08:58:23Z</time>
      </trkpt>
      <trkpt lat="43.95555" lon="-0.49157">
        <ele>73</ele>
        <time>2015-05-28T08:58:30Z</time>
      </trkpt>
      <trkpt lat="43.95545" lon="-0.4916">
        <ele>73</ele>
        <time>2015-05-28T08:58:38Z</time>
      </trkpt>
      <trkpt lat="43.95535" lon="-0.49163">
        <ele>73</ele>
        <time>2015-05-28T08:58:46Z</time>
      </trkpt>
      <trkpt lat="43.95526" lon="-0.4916">
        <ele>73</ele>
        <time>2015-05-28T08:58:53Z</time>
      </trkpt>
      <trkpt lat="43.95518" lon="-0.49155">
        <ele>73</ele>
        <time>2015-05-28T08:59:00Z</time>
      </trkpt>
      <trkpt lat="43.95508" lon="-0.49152">
        <ele>73</ele>
        <time>2015-05-28T08:59:08Z</time>
      </trkpt>
      <trkpt lat="43.95499" lon="-0.49151">
        <ele>73</ele>
        <time>2015-05-28T08:59:15Z</time>
      </trkpt>
      <trkpt lat="43.95489" lon="-0.49151">
        <ele>73</ele>
        <time>2015-05-28T08:59:22Z</time>
      </trkpt>
      <trkpt lat="43.9548" lon="-0.49155">
        <ele>73</ele>
        <time>2015-05-28T08:59:29Z</time>
      </trkpt>
      <trkpt lat="43.9547" lon="-0.49154">
        <ele>73</ele>
        <time>2015-05-28T08:59:37Z</time>
      </trkpt>
      <trkpt lat="43.95461" lon="-0.49156">
        <ele>73</ele>
        <time>2015-05-28T08:59:44Z</time>
      </trkpt>
      <trkpt lat="43.95452" lon="-0.49157">
        <ele>73</ele>
        <time>2015-05-28T08:59:50Z</time>
      </trkpt>
      <trkpt lat="43.95443" lon="-0.49158">
        <ele>73</ele>
        <time>2015-05-28T08:59:57Z</time>
      </trkpt>
      <trkpt lat="43.95433" lon="-0.49158">
        <ele>73</ele>
        <time>2015-05-28T09:00:04Z</time>
      </trkpt>
      <trkpt lat="43.95424" lon="-0.49159">
        <ele>73</ele>
        <time>2015-05-28T09:00:11Z</time>
      </trkpt>
      <trkpt lat="43.95414" lon="-0.4916">
        <ele>73</ele>
        <time>2015-05-28T09:00:18Z</time>
      </trkpt>
      <trkpt lat="43.95405" lon="-0.49162">
        <ele>73</ele>
        <time>2015-05-28T09:00:25Z</time>
      </trkpt>
      <trkpt lat="43.95396" lon="-0.49163">
        <ele>73</ele>
        <time>2015-05-28T09:00:32Z</time>
      </trkpt>
      <trkpt lat="43.95387" lon="-0.49162">
        <ele>73</ele>
        <time>2015-05-28T09:00:39Z</time>
      </trkpt>
      <trkpt lat="43.95377" lon="-0.49164">
        <ele>73</ele>
        <time>2015-05-28T09:00:46Z</time>
      </trkpt>
      <trkpt lat="43.95368" lon="-0.4916">
        <ele>73</ele>
        <time>2015-05-28T09:00:54Z</time>
      </trkpt>
      <trkpt lat="43.95359" lon="-0.49155">
        <ele>73</ele>
        <time>2015-05-28T09:01:01Z</time>
      </trkpt>
      <trkpt lat="43.9535" lon="-0.49153">
        <ele>73</ele>
        <time>2015-05-28T09:01:08Z</time>
      </trkpt>
      <trkpt lat="43.95341" lon="-0.49157">
        <ele>73</ele>
        <time>2015-05-28T09:01:15Z</time>
      </trkpt>
      <trkpt lat="43.95331" lon="-0.49157">
        <ele>73</ele>
        <time>2015-05-28T09:01:22Z</time>
      </trkpt>
      <trkpt lat="43.95322" lon="-0.49159">
        <ele>73</ele>
        <time>2015-05-28T09:01:31Z</time>
      </trkpt>
      <trkpt lat="43.95313" lon="-0.49159">
        <ele>73</ele>
        <time>2015-05-28T09:01:39Z</time>
      </trkpt>
      <trkpt lat="43.95305" lon="-0.49165">
        <ele>73</ele>
        <time>2015-05-28T09:01:46Z</time>
      </trkpt>
      <trkpt lat="43.95295" lon="-0.49167">
        <ele>73</ele>
        <time>2015-05-28T09:01:53Z</time>
      </trkpt>
      <trkpt lat="43.95286" lon="-0.49167">
        <ele>73</ele>
        <time>2015-05-28T09:02:00Z</time>
      </trkpt>
      <trkpt lat="43.95277" lon="-0.49169">
        <ele>73</ele>
        <time>2015-05-28T09:02:07Z</time>
      </trkpt>
      <trkpt lat="43.95267" lon="-0.49168">
        <ele>73</ele>
        <time>2015-05-28T09:02:16Z</time>
      </trkpt>
      <trkpt lat="43.95257" lon="-0.49168">
        <ele>73</ele>
        <time>2015-05-28T09:02:24Z</time>
      </trkpt>
      <trkpt lat="43.95248" lon="-0.4917">
        <ele>73</ele>
        <time>2015-05-28T09:02:29Z</time>
      </trkpt>
      <trkpt lat="43.9524" lon="-0.49174">
        <ele>73</ele>
        <time>2015-05-28T09:02:35Z</time>
      </trkpt>
      <trkpt lat="43.95231" lon="-0.49177">
        <ele>73</ele>
        <time>2015-05-28T09:02:43Z</time>
      </trkpt>
      <trkpt lat="43.95222" lon="-0.49177">
        <ele>73</ele>
        <time>2015-05-28T09:02:50Z</time>
      </trkpt>
      <trkpt lat="43.95213" lon="-0.49183">
        <ele>73</ele>
        <time>2015-05-28T09:02:57Z</time>
      </trkpt>
      <trkpt lat="43.95204" lon="-0.4918">
        <ele>73</ele>
        <time>2015-05-28T09:03:04Z</time>
      </trkpt>
      <trkpt lat="43.952" lon="-0.49166">
        <ele>73</ele>
        <time>2015-05-28T09:03:12Z</time>
      </trkpt>
      <trkpt lat="43.952" lon="-0.49153">
        <ele>73</ele>
        <time>2015-05-28T09:03:18Z</time>
      </trkpt>
      <trkpt lat="43.95196" lon="-0.49141">
        <ele>73</ele>
        <time>2015-05-28T09:03:27Z</time>
      </trkpt>
      <trkpt lat="43.95191" lon="-0.49132">
        <ele>85</ele>
        <time>2015-05-28T09:04:13Z</time>
      </trkpt>
      <trkpt lat="43.95198" lon="-0.49139">
        <ele>85</ele>
        <time>2015-05-28T09:04:49Z</time>
      </trkpt>
      <trkpt lat="43.95194" lon="-0.49127">
        <ele>85</ele>
        <time>2015-05-28T09:05:03Z</time>
      </trkpt>
      <trkpt lat="43.95192" lon="-0.49115">
        <ele>79</ele>
        <time>2015-05-28T09:05:10Z</time>
      </trkpt>
      <trkpt lat="43.95191" lon="-0.49102">
        <ele>79</ele>
        <time>2015-05-28T09:05:17Z</time>
      </trkpt>
      <trkpt lat="43.95192" lon="-0.49089">
        <ele>71</ele>
        <time>2015-05-28T09:05:26Z</time>
      </trkpt>
      <trkpt lat="43.95191" lon="-0.49077">
        <ele>71</ele>
        <time>2015-05-28T09:05:33Z</time>
      </trkpt>
      <trkpt lat="43.9519" lon="-0.49063">
        <ele>71</ele>
        <time>2015-05-28T09:05:40Z</time>
      </trkpt>
      <trkpt lat="43.95189" lon="-0.49051">
        <ele>71</ele>
        <time>2015-05-28T09:05:48Z</time>
      </trkpt>
      <trkpt lat="43.95188" lon="-0.49038">
        <ele>66</ele>
        <time>2015-05-28T09:05:55Z</time>
      </trkpt>
      <trkpt lat="43.95187" lon="-0.49024">
        <ele>66</ele>
        <time>2015-05-28T09:06:03Z</time>
      </trkpt>
      <trkpt lat="43.95185" lon="-0.49011">
        <ele>66</ele>
        <time>2015-05-28T09:06:11Z</time>
      </trkpt>
      <trkpt lat="43.95181" lon="-0.49">
        <ele>66</ele>
        <time>2015-05-28T09:06:16Z</time>
      </trkpt>
      <trkpt lat="43.95179" lon="-0.48985">
        <ele>66</ele>
        <time>2015-05-28T09:06:22Z</time>
      </trkpt>
      <trkpt lat="43.95177" lon="-0.48972">
        <ele>66</ele>
        <time>2015-05-28T09:06:29Z</time>
      </trkpt>
      <trkpt lat="43.95175" lon="-0.48959">
        <ele>66</ele>
        <time>2015-05-28T09:06:36Z</time>
      </trkpt>
      <trkpt lat="43.95174" lon="-0.48945">
        <ele>66</ele>
        <time>2015-05-28T09:06:46Z</time>
      </trkpt>
      <trkpt lat="43.95172" lon="-0.48932">
        <ele>66</ele>
        <time>2015-05-28T09:06:52Z</time>
      </trkpt>
      <trkpt lat="43.95169" lon="-0.48921">
        <ele>66</ele>
        <time>2015-05-28T09:06:57Z</time>
      </trkpt>
      <trkpt lat="43.95169" lon="-0.48908">
        <ele>66</ele>
        <time>2015-05-28T09:07:04Z</time>
      </trkpt>
      <trkpt lat="43.95168" lon="-0.48895">
        <ele>66</ele>
        <time>2015-05-28T09:07:11Z</time>
      </trkpt>
      <trkpt lat="43.95165" lon="-0.48883">
        <ele>66</ele>
        <time>2015-05-28T09:07:20Z</time>
      </trkpt>
      <trkpt lat="43.95163" lon="-0.4887">
        <ele>66</ele>
        <time>2015-05-28T09:07:27Z</time>
      </trkpt>
      <trkpt lat="43.95163" lon="-0.48857">
        <ele>66</ele>
        <time>2015-05-28T09:07:35Z</time>
      </trkpt>
      <trkpt lat="43.95162" lon="-0.48843">
        <ele>66</ele>
        <time>2015-05-28T09:07:41Z</time>
      </trkpt>
      <trkpt lat="43.95161" lon="-0.4883">
        <ele>66</ele>
        <time>2015-05-28T09:07:48Z</time>
      </trkpt>
      <trkpt lat="43.9516" lon="-0.48816">
        <ele>66</ele>
        <time>2015-05-28T09:07:56Z</time>
      </trkpt>
      <trkpt lat="43.95159" lon="-0.48804">
        <ele>66</ele>
        <time>2015-05-28T09:08:02Z</time>
      </trkpt>
      <trkpt lat="43.95157" lon="-0.48791">
        <ele>66</ele>
        <time>2015-05-28T09:08:08Z</time>
      </trkpt>
      <trkpt lat="43.95157" lon="-0.48778">
        <ele>66</ele>
        <time>2015-05-28T09:08:15Z</time>
      </trkpt>
      <trkpt lat="43.95154" lon="-0.48766">
        <ele>66</ele>
        <time>2015-05-28T09:08:22Z</time>
      </trkpt>
      <trkpt lat="43.9515" lon="-0.48752">
        <ele>72</ele>
        <time>2015-05-28T09:08:28Z</time>
      </trkpt>
      <trkpt lat="43.95147" lon="-0.48739">
        <ele>72</ele>
        <time>2015-05-28T09:08:33Z</time>
      </trkpt>
      <trkpt lat="43.95148" lon="-0.48726">
        <ele>66</ele>
        <time>2015-05-28T09:08:42Z</time>
      </trkpt>
      <trkpt lat="43.95146" lon="-0.48714">
        <ele>66</ele>
        <time>2015-05-28T09:08:47Z</time>
      </trkpt>
      <trkpt lat="43.95142" lon="-0.487">
        <ele>71</ele>
        <time>2015-05-28T09:08:54Z</time>
      </trkpt>
      <trkpt lat="43.95139" lon="-0.48688">
        <ele>71</ele>
        <time>2015-05-28T09:09:03Z</time>
      </trkpt>
      <trkpt lat="43.95137" lon="-0.48674">
        <ele>71</ele>
        <time>2015-05-28T09:09:11Z</time>
      </trkpt>
      <trkpt lat="43.95136" lon="-0.48662">
        <ele>71</ele>
        <time>2015-05-28T09:09:18Z</time>
      </trkpt>
      <trkpt lat="43.95135" lon="-0.48647">
        <ele>71</ele>
        <time>2015-05-28T09:09:28Z</time>
      </trkpt>
      <trkpt lat="43.95132" lon="-0.48635">
        <ele>71</ele>
        <time>2015-05-28T09:09:34Z</time>
      </trkpt>
      <trkpt lat="43.9513" lon="-0.48621">
        <ele>71</ele>
        <time>2015-05-28T09:09:43Z</time>
      </trkpt>
      <trkpt lat="43.95128" lon="-0.48609">
        <ele>71</ele>
        <time>2015-05-28T09:09:50Z</time>
      </trkpt>
      <trkpt lat="43.95128" lon="-0.48596">
        <ele>71</ele>
        <time>2015-05-28T09:09:56Z</time>
      </trkpt>
      <trkpt lat="43.95126" lon="-0.48584">
        <ele>65</ele>
        <time>2015-05-28T09:10:04Z</time>
      </trkpt>
      <trkpt lat="43.95125" lon="-0.48571">
        <ele>65</ele>
        <time>2015-05-28T09:10:10Z</time>
      </trkpt>
      <trkpt lat="43.9512" lon="-0.48558">
        <ele>65</ele>
        <time>2015-05-28T09:10:17Z</time>
      </trkpt>
      <trkpt lat="43.9512" lon="-0.48545">
        <ele>65</ele>
        <time>2015-05-28T09:10:25Z</time>
      </trkpt>
      <trkpt lat="43.95119" lon="-0.48532">
        <ele>65</ele>
        <time>2015-05-28T09:10:32Z</time>
      </trkpt>
      <trkpt lat="43.95117" lon="-0.48519">
        <ele>65</ele>
        <time>2015-05-28T09:10:39Z</time>
      </trkpt>
      <trkpt lat="43.95114" lon="-0.48507">
        <ele>65</ele>
        <time>2015-05-28T09:10:45Z</time>
      </trkpt>
      <trkpt lat="43.95112" lon="-0.48495">
        <ele>65</ele>
        <time>2015-05-28T09:10:52Z</time>
      </trkpt>
      <trkpt lat="43.95111" lon="-0.48481">
        <ele>65</ele>
        <time>2015-05-28T09:11:00Z</time>
      </trkpt>
      <trkpt lat="43.9511" lon="-0.48469">
        <ele>65</ele>
        <time>2015-05-28T09:11:09Z</time>
      </trkpt>
      <trkpt lat="43.95108" lon="-0.48456">
        <ele>65</ele>
        <time>2015-05-28T09:11:16Z</time>
      </trkpt>
      <trkpt lat="43.95106" lon="-0.48442">
        <ele>65</ele>
        <time>2015-05-28T09:11:23Z</time>
      </trkpt>
      <trkpt lat="43.95104" lon="-0.48428">
        <ele>65</ele>
        <time>2015-05-28T09:11:31Z</time>
      </trkpt>
      <trkpt lat="43.95102" lon="-0.48415">
        <ele>65</ele>
        <time>2015-05-28T09:11:38Z</time>
      </trkpt>
      <trkpt lat="43.95099" lon="-0.48402">
        <ele>65</ele>
        <time>2015-05-28T09:11:45Z</time>
      </trkpt>
      <trkpt lat="43.95096" lon="-0.4839">
        <ele>65</ele>
        <time>2015-05-28T09:11:52Z</time>
      </trkpt>
      <trkpt lat="43.95091" lon="-0.48379">
        <ele>71</ele>
        <time>2015-05-28T09:11:56Z</time>
      </trkpt>
      <trkpt lat="43.9509" lon="-0.48365">
        <ele>71</ele>
        <time>2015-05-28T09:12:05Z</time>
      </trkpt>
      <trkpt lat="43.95087" lon="-0.48351">
        <ele>71</ele>
        <time>2015-05-28T09:12:11Z</time>
      </trkpt>
      <trkpt lat="43.95085" lon="-0.48337">
        <ele>71</ele>
        <time>2015-05-28T09:12:19Z</time>
      </trkpt>
      <trkpt lat="43.95083" lon="-0.48324">
        <ele>71</ele>
        <time>2015-05-28T09:12:26Z</time>
      </trkpt>
      <trkpt lat="43.95083" lon="-0.48311">
        <ele>71</ele>
        <time>2015-05-28T09:12:32Z</time>
      </trkpt>
      <trkpt lat="43.9508" lon="-0.483">
        <ele>71</ele>
        <time>2015-05-28T09:12:38Z</time>
      </trkpt>
      <trkpt lat="43.95077" lon="-0.48288">
        <ele>71</ele>
        <time>2015-05-28T09:12:44Z</time>
      </trkpt>
      <trkpt lat="43.95076" lon="-0.48276">
        <ele>71</ele>
        <time>2015-05-28T09:12:52Z</time>
      </trkpt>
      <trkpt lat="43.95073" lon="-0.48263">
        <ele>71</ele>
        <time>2015-05-28T09:12:59Z</time>
      </trkpt>
      <trkpt lat="43.95071" lon="-0.48249">
        <ele>71</ele>
        <time>2015-05-28T09:13:06Z</time>
      </trkpt>
      <trkpt lat="43.95069" lon="-0.48237">
        <ele>71</ele>
        <time>2015-05-28T09:13:13Z</time>
      </trkpt>
      <trkpt lat="43.95067" lon="-0.48223">
        <ele>71</ele>
        <time>2015-05-28T09:13:22Z</time>
      </trkpt>
      <trkpt lat="43.95064" lon="-0.4821">
        <ele>71</ele>
        <time>2015-05-28T09:13:30Z</time>
      </trkpt>
      <trkpt lat="43.95061" lon="-0.48198">
        <ele>71</ele>
        <time>2015-05-28T09:13:36Z</time>
      </trkpt>
      <trkpt lat="43.95058" lon="-0.48185">
        <ele>71</ele>
        <time>2015-05-28T09:13:43Z</time>
      </trkpt>
      <trkpt lat="43.95056" lon="-0.48173">
        <ele>66</ele>
        <time>2015-05-28T09:13:49Z</time>
      </trkpt>
      <trkpt lat="43.95053" lon="-0.48161">
        <ele>66</ele>
        <time>2015-05-28T09:13:56Z</time>
      </trkpt>
      <trkpt lat="43.9505" lon="-0.48149">
        <ele>66</ele>
        <time>2015-05-28T09:14:02Z</time>
      </trkpt>
      <trkpt lat="43.95047" lon="-0.48137">
        <ele>66</ele>
        <time>2015-05-28T09:14:08Z</time>
      </trkpt>
      <trkpt lat="43.95045" lon="-0.48125">
        <ele>66</ele>
        <time>2015-05-28T09:14:16Z</time>
      </trkpt>
      <trkpt lat="43.95041" lon="-0.48111">
        <ele>66</ele>
        <time>2015-05-28T09:14:22Z</time>
      </trkpt>
      <trkpt lat="43.95037" lon="-0.48099">
        <ele>66</ele>
        <time>2015-05-28T09:14:29Z</time>
      </trkpt>
      <trkpt lat="43.95035" lon="-0.48086">
        <ele>66</ele>
        <time>2015-05-28T09:14:37Z</time>
      </trkpt>
      <trkpt lat="43.95033" lon="-0.48073">
        <ele>66</ele>
        <time>2015-05-28T09:14:45Z</time>
      </trkpt>
      <trkpt lat="43.9503" lon="-0.48061">
        <ele>66</ele>
        <time>2015-05-28T09:14:53Z</time>
      </trkpt>
      <trkpt lat="43.95027" lon="-0.48048">
        <ele>66</ele>
        <time>2015-05-28T09:15:01Z</time>
      </trkpt>
      <trkpt lat="43.95024" lon="-0.48036">
        <ele>66</ele>
        <time>2015-05-28T09:15:08Z</time>
      </trkpt>
      <trkpt lat="43.95021" lon="-0.48024">
        <ele>66</ele>
        <time>2015-05-28T09:15:15Z</time>
      </trkpt>
      <trkpt lat="43.95018" lon="-0.48012">
        <ele>66</ele>
        <time>2015-05-28T09:15:22Z</time>
      </trkpt>
      <trkpt lat="43.95015" lon="-0.48001">
        <ele>66</ele>
        <time>2015-05-28T09:15:29Z</time>
      </trkpt>
      <trkpt lat="43.95012" lon="-0.47989">
        <ele>66</ele>
        <time>2015-05-28T09:15:37Z</time>
      </trkpt>
      <trkpt lat="43.95009" lon="-0.47976">
        <ele>66</ele>
        <time>2015-05-28T09:15:45Z</time>
      </trkpt>
      <trkpt lat="43.95006" lon="-0.47964">
        <ele>66</ele>
        <time>2015-05-28T09:15:52Z</time>
      </trkpt>
      <trkpt lat="43.95002" lon="-0.47952">
        <ele>66</ele>
        <time>2015-05-28T09:15:59Z</time>
      </trkpt>
      <trkpt lat="43.94999" lon="-0.4794">
        <ele>66</ele>
        <time>2015-05-28T09:16:06Z</time>
      </trkpt>
      <trkpt lat="43.94995" lon="-0.47927">
        <ele>66</ele>
        <time>2015-05-28T09:16:13Z</time>
      </trkpt>
      <trkpt lat="43.94992" lon="-0.47914">
        <ele>66</ele>
        <time>2015-05-28T09:16:21Z</time>
      </trkpt>
      <trkpt lat="43.94989" lon="-0.47902">
        <ele>66</ele>
        <time>2015-05-28T09:16:28Z</time>
      </trkpt>
      <trkpt lat="43.94985" lon="-0.47889">
        <ele>66</ele>
        <time>2015-05-28T09:16:36Z</time>
      </trkpt>
      <trkpt lat="43.94982" lon="-0.47878">
        <ele>66</ele>
        <time>2015-05-28T09:16:43Z</time>
      </trkpt>
      <trkpt lat="43.94979" lon="-0.47866">
        <ele>66</ele>
        <time>2015-05-28T09:16:50Z</time>
      </trkpt>
      <trkpt lat="43.94976" lon="-0.47854">
        <ele>66</ele>
        <time>2015-05-28T09:16:57Z</time>
      </trkpt>
      <trkpt lat="43.94973" lon="-0.47843">
        <ele>66</ele>
        <time>2015-05-28T09:17:04Z</time>
      </trkpt>
      <trkpt lat="43.94971" lon="-0.47831">
        <ele>66</ele>
        <time>2015-05-28T09:17:11Z</time>
      </trkpt>
      <trkpt lat="43.94967" lon="-0.47818">
        <ele>66</ele>
        <time>2015-05-28T09:17:19Z</time>
      </trkpt>
      <trkpt lat="43.94965" lon="-0.47806">
        <ele>66</ele>
        <time>2015-05-28T09:17:26Z</time>
      </trkpt>
      <trkpt lat="43.94962" lon="-0.47794">
        <ele>66</ele>
        <time>2015-05-28T09:17:33Z</time>
      </trkpt>
      <trkpt lat="43.94958" lon="-0.47782">
        <ele>66</ele>
        <time>2015-05-28T09:17:39Z</time>
      </trkpt>
      <trkpt lat="43.94956" lon="-0.47771">
        <ele>66</ele>
        <time>2015-05-28T09:17:46Z</time>
      </trkpt>
      <trkpt lat="43.94953" lon="-0.47757">
        <ele>66</ele>
        <time>2015-05-28T09:17:54Z</time>
      </trkpt>
      <trkpt lat="43.9495" lon="-0.47744">
        <ele>66</ele>
        <time>2015-05-28T09:18:01Z</time>
      </trkpt>
      <trkpt lat="43.94948" lon="-0.47731">
        <ele>66</ele>
        <time>2015-05-28T09:18:08Z</time>
      </trkpt>
      <trkpt lat="43.94945" lon="-0.47719">
        <ele>66</ele>
        <time>2015-05-28T09:18:15Z</time>
      </trkpt>
      <trkpt lat="43.94942" lon="-0.47708">
        <ele>66</ele>
        <time>2015-05-28T09:18:22Z</time>
      </trkpt>
      <trkpt lat="43.94939" lon="-0.47695">
        <ele>66</ele>
        <time>2015-05-28T09:18:29Z</time>
      </trkpt>
      <trkpt lat="43.94936" lon="-0.47684">
        <ele>66</ele>
        <time>2015-05-28T09:18:35Z</time>
      </trkpt>
      <trkpt lat="43.94933" lon="-0.47671">
        <ele>66</ele>
        <time>2015-05-28T09:18:42Z</time>
      </trkpt>
      <trkpt lat="43.9493" lon="-0.47659">
        <ele>66</ele>
        <time>2015-05-28T09:18:48Z</time>
      </trkpt>
      <trkpt lat="43.94927" lon="-0.47648">
        <ele>66</ele>
        <time>2015-05-28T09:18:54Z</time>
      </trkpt>
      <trkpt lat="43.94924" lon="-0.47634">
        <ele>66</ele>
        <time>2015-05-28T09:19:01Z</time>
      </trkpt>
      <trkpt lat="43.94921" lon="-0.47622">
        <ele>66</ele>
        <time>2015-05-28T09:19:08Z</time>
      </trkpt>
      <trkpt lat="43.94919" lon="-0.47609">
        <ele>66</ele>
        <time>2015-05-28T09:19:15Z</time>
      </trkpt>
      <trkpt lat="43.94917" lon="-0.47596">
        <ele>66</ele>
        <time>2015-05-28T09:19:22Z</time>
      </trkpt>
      <trkpt lat="43.94913" lon="-0.47585">
        <ele>66</ele>
        <time>2015-05-28T09:19:28Z</time>
      </trkpt>
      <trkpt lat="43.94911" lon="-0.47572">
        <ele>66</ele>
        <time>2015-05-28T09:19:35Z</time>
      </trkpt>
      <trkpt lat="43.94908" lon="-0.4756">
        <ele>66</ele>
        <time>2015-05-28T09:19:41Z</time>
      </trkpt>
      <trkpt lat="43.94907" lon="-0.47548">
        <ele>66</ele>
        <time>2015-05-28T09:19:48Z</time>
      </trkpt>
      <trkpt lat="43.94903" lon="-0.47535">
        <ele>66</ele>
        <time>2015-05-28T09:19:55Z</time>
      </trkpt>
      <trkpt lat="43.94899" lon="-0.47524">
        <ele>66</ele>
        <time>2015-05-28T09:20:01Z</time>
      </trkpt>
      <trkpt lat="43.94895" lon="-0.47512">
        <ele>66</ele>
        <time>2015-05-28T09:20:06Z</time>
      </trkpt>
      <trkpt lat="43.94891" lon="-0.47499">
        <ele>66</ele>
        <time>2015-05-28T09:20:13Z</time>
      </trkpt>
      <trkpt lat="43.94887" lon="-0.47489">
        <ele>66</ele>
        <time>2015-05-28T09:20:19Z</time>
      </trkpt>
      <trkpt lat="43.94888" lon="-0.47476">
        <ele>66</ele>
        <time>2015-05-28T09:20:26Z</time>
      </trkpt>
      <trkpt lat="43.94896" lon="-0.47467">
        <ele>66</ele>
        <time>2015-05-28T09:20:33Z</time>
      </trkpt>
      <trkpt lat="43.94904" lon="-0.47462">
        <ele>66</ele>
        <time>2015-05-28T09:20:39Z</time>
      </trkpt>
      <trkpt lat="43.94913" lon="-0.47455">
        <ele>66</ele>
        <time>2015-05-28T09:20:46Z</time>
      </trkpt>
      <trkpt lat="43.94923" lon="-0.47449">
        <ele>66</ele>
        <time>2015-05-28T09:20:53Z</time>
      </trkpt>
      <trkpt lat="43.9493" lon="-0.47443">
        <ele>66</ele>
        <time>2015-05-28T09:20:59Z</time>
      </trkpt>
      <trkpt lat="43.94939" lon="-0.47437">
        <ele>66</ele>
        <time>2015-05-28T09:21:05Z</time>
      </trkpt>
      <trkpt lat="43.94948" lon="-0.47431">
        <ele>66</ele>
        <time>2015-05-28T09:21:12Z</time>
      </trkpt>
      <trkpt lat="43.94958" lon="-0.47426">
        <ele>66</ele>
        <time>2015-05-28T09:21:20Z</time>
      </trkpt>
      <trkpt lat="43.94966" lon="-0.4742">
        <ele>66</ele>
        <time>2015-05-28T09:21:27Z</time>
      </trkpt>
      <trkpt lat="43.94974" lon="-0.47415">
        <ele>66</ele>
        <time>2015-05-28T09:21:33Z</time>
      </trkpt>
      <trkpt lat="43.94984" lon="-0.4741">
        <ele>66</ele>
        <time>2015-05-28T09:21:40Z</time>
      </trkpt>
      <trkpt lat="43.94992" lon="-0.47403">
        <ele>66</ele>
        <time>2015-05-28T09:21:48Z</time>
      </trkpt>
      <trkpt lat="43.95" lon="-0.47396">
        <ele>66</ele>
        <time>2015-05-28T09:21:55Z</time>
      </trkpt>
      <trkpt lat="43.95009" lon="-0.4739">
        <ele>66</ele>
        <time>2015-05-28T09:22:02Z</time>
      </trkpt>
      <trkpt lat="43.95017" lon="-0.47384">
        <ele>66</ele>
        <time>2015-05-28T09:22:09Z</time>
      </trkpt>
      <trkpt lat="43.95026" lon="-0.47378">
        <ele>66</ele>
        <time>2015-05-28T09:22:16Z</time>
      </trkpt>
      <trkpt lat="43.95034" lon="-0.47371">
        <ele>66</ele>
        <time>2015-05-28T09:22:23Z</time>
      </trkpt>
      <trkpt lat="43.95041" lon="-0.47365">
        <ele>66</ele>
        <time>2015-05-28T09:22:30Z</time>
      </trkpt>
      <trkpt lat="43.95049" lon="-0.47358">
        <ele>66</ele>
        <time>2015-05-28T09:22:37Z</time>
      </trkpt>
      <trkpt lat="43.95058" lon="-0.47353">
        <ele>66</ele>
        <time>2015-05-28T09:22:44Z</time>
      </trkpt>
      <trkpt lat="43.95066" lon="-0.47348">
        <ele>66</ele>
        <time>2015-05-28T09:22:51Z</time>
      </trkpt>
      <trkpt lat="43.95074" lon="-0.47344">
        <ele>66</ele>
        <time>2015-05-28T09:22:58Z</time>
      </trkpt>
      <trkpt lat="43.95083" lon="-0.47339">
        <ele>66</ele>
        <time>2015-05-28T09:23:05Z</time>
      </trkpt>
      <trkpt lat="43.95092" lon="-0.47332">
        <ele>66</ele>
        <time>2015-05-28T09:23:13Z</time>
      </trkpt>
      <trkpt lat="43.95101" lon="-0.47327">
        <ele>66</ele>
        <time>2015-05-28T09:23:20Z</time>
      </trkpt>
      <trkpt lat="43.95108" lon="-0.4732">
        <ele>66</ele>
        <time>2015-05-28T09:23:27Z</time>
      </trkpt>
      <trkpt lat="43.95117" lon="-0.47313">
        <ele>66</ele>
        <time>2015-05-28T09:23:34Z</time>
      </trkpt>
      <trkpt lat="43.95126" lon="-0.47307">
        <ele>66</ele>
        <time>2015-05-28T09:23:41Z</time>
      </trkpt>
      <trkpt lat="43.95135" lon="-0.473">
        <ele>66</ele>
        <time>2015-05-28T09:23:49Z</time>
      </trkpt>
      <trkpt lat="43.95144" lon="-0.47295">
        <ele>66</ele>
        <time>2015-05-28T09:23:56Z</time>
      </trkpt>
      <trkpt lat="43.95152" lon="-0.4729">
        <ele>66</ele>
        <time>2015-05-28T09:24:03Z</time>
      </trkpt>
      <trkpt lat="43.95161" lon="-0.47284">
        <ele>66</ele>
        <time>2015-05-28T09:24:10Z</time>
      </trkpt>
      <trkpt lat="43.95169" lon="-0.47277">
        <ele>66</ele>
        <time>2015-05-28T09:24:17Z</time>
      </trkpt>
      <trkpt lat="43.95178" lon="-0.47272">
        <ele>66</ele>
        <time>2015-05-28T09:24:23Z</time>
      </trkpt>
      <trkpt lat="43.9518" lon="-0.4726">
        <ele>66</ele>
        <time>2015-05-28T09:24:30Z</time>
      </trkpt>
      <trkpt lat="43.95178" lon="-0.47247">
        <ele>66</ele>
        <time>2015-05-28T09:24:36Z</time>
      </trkpt>
      <trkpt lat="43.95176" lon="-0.47233">
        <ele>66</ele>
        <time>2015-05-28T09:24:43Z</time>
      </trkpt>
      <trkpt lat="43.95174" lon="-0.47221">
        <ele>66</ele>
        <time>2015-05-28T09:24:50Z</time>
      </trkpt>
      <trkpt lat="43.95172" lon="-0.47208">
        <ele>66</ele>
        <time>2015-05-28T09:24:57Z</time>
      </trkpt>
      <trkpt lat="43.95169" lon="-0.47196">
        <ele>66</ele>
        <time>2015-05-28T09:25:04Z</time>
      </trkpt>
      <trkpt lat="43.95165" lon="-0.47185">
        <ele>66</ele>
        <time>2015-05-28T09:25:10Z</time>
      </trkpt>
      <trkpt lat="43.95159" lon="-0.47174">
        <ele>66</ele>
        <time>2015-05-28T09:25:17Z</time>
      </trkpt>
      <trkpt lat="43.95154" lon="-0.47163">
        <ele>66</ele>
        <time>2015-05-28T09:25:25Z</time>
      </trkpt>
      <trkpt lat="43.95148" lon="-0.47151">
        <ele>66</ele>
        <time>2015-05-28T09:25:33Z</time>
      </trkpt>
      <trkpt lat="43.95141" lon="-0.47141">
        <ele>66</ele>
        <time>2015-05-28T09:25:41Z</time>
      </trkpt>
      <trkpt lat="43.95135" lon="-0.47132">
        <ele>66</ele>
        <time>2015-05-28T09:25:48Z</time>
      </trkpt>
      <trkpt lat="43.95129" lon="-0.47122">
        <ele>66</ele>
        <time>2015-05-28T09:25:55Z</time>
      </trkpt>
      <trkpt lat="43.95124" lon="-0.4711">
        <ele>66</ele>
        <time>2015-05-28T09:26:02Z</time>
      </trkpt>
      <trkpt lat="43.9512" lon="-0.47099">
        <ele>66</ele>
        <time>2015-05-28T09:26:08Z</time>
      </trkpt>
      <trkpt lat="43.95118" lon="-0.47084">
        <ele>66</ele>
        <time>2015-05-28T09:26:16Z</time>
      </trkpt>
      <trkpt lat="43.95116" lon="-0.47071">
        <ele>66</ele>
        <time>2015-05-28T09:26:23Z</time>
      </trkpt>
      <trkpt lat="43.95114" lon="-0.47058">
        <ele>66</ele>
        <time>2015-05-28T09:26:30Z</time>
      </trkpt>
      <trkpt lat="43.95112" lon="-0.47046">
        <ele>66</ele>
        <time>2015-05-28T09:26:37Z</time>
      </trkpt>
      <trkpt lat="43.95109" lon="-0.47033">
        <ele>66</ele>
        <time>2015-05-28T09:26:45Z</time>
      </trkpt>
      <trkpt lat="43.95106" lon="-0.47021">
        <ele>66</ele>
        <time>2015-05-28T09:26:53Z</time>
      </trkpt>
      <trkpt lat="43.95102" lon="-0.47009">
        <ele>66</ele>
        <time>2015-05-28T09:27:01Z</time>
      </trkpt>
      <trkpt lat="43.951" lon="-0.46995">
        <ele>66</ele>
        <time>2015-05-28T09:27:09Z</time>
      </trkpt>
      <trkpt lat="43.95099" lon="-0.46982">
        <ele>66</ele>
        <time>2015-05-28T09:27:17Z</time>
      </trkpt>
      <trkpt lat="43.95097" lon="-0.46969">
        <ele>66</ele>
        <time>2015-05-28T09:27:24Z</time>
      </trkpt>
      <trkpt lat="43.95096" lon="-0.46956">
        <ele>66</ele>
        <time>2015-05-28T09:27:31Z</time>
      </trkpt>
      <trkpt lat="43.95096" lon="-0.46942">
        <ele>66</ele>
        <time>2015-05-28T09:27:39Z</time>
      </trkpt>
      <trkpt lat="43.95096" lon="-0.4693">
        <ele>66</ele>
        <time>2015-05-28T09:27:46Z</time>
      </trkpt>
      <trkpt lat="43.95095" lon="-0.46917">
        <ele>66</ele>
        <time>2015-05-28T09:27:53Z</time>
      </trkpt>
      <trkpt lat="43.95095" lon="-0.46905">
        <ele>66</ele>
        <time>2015-05-28T09:28:00Z</time>
      </trkpt>
      <trkpt lat="43.95093" lon="-0.46892">
        <ele>66</ele>
        <time>2015-05-28T09:28:06Z</time>
      </trkpt>
      <trkpt lat="43.95092" lon="-0.4688">
        <ele>66</ele>
        <time>2015-05-28T09:28:13Z</time>
      </trkpt>
      <trkpt lat="43.9509" lon="-0.46867">
        <ele>66</ele>
        <time>2015-05-28T09:28:20Z</time>
      </trkpt>
      <trkpt lat="43.95089" lon="-0.46853">
        <ele>66</ele>
        <time>2015-05-28T09:28:27Z</time>
      </trkpt>
      <trkpt lat="43.95089" lon="-0.46841">
        <ele>66</ele>
        <time>2015-05-28T09:28:34Z</time>
      </trkpt>
      <trkpt lat="43.95088" lon="-0.46827">
        <ele>66</ele>
        <time>2015-05-28T09:28:41Z</time>
      </trkpt>
      <trkpt lat="43.95086" lon="-0.46814">
        <ele>66</ele>
        <time>2015-05-28T09:28:49Z</time>
      </trkpt>
      <trkpt lat="43.95085" lon="-0.46801">
        <ele>66</ele>
        <time>2015-05-28T09:28:56Z</time>
      </trkpt>
      <trkpt lat="43.95085" lon="-0.46788">
        <ele>66</ele>
        <time>2015-05-28T09:29:03Z</time>
      </trkpt>
      <trkpt lat="43.95085" lon="-0.46775">
        <ele>66</ele>
        <time>2015-05-28T09:29:10Z</time>
      </trkpt>
      <trkpt lat="43.95084" lon="-0.46763">
        <ele>66</ele>
        <time>2015-05-28T09:29:17Z</time>
      </trkpt>
      <trkpt lat="43.95083" lon="-0.46749">
        <ele>66</ele>
        <time>2015-05-28T09:29:24Z</time>
      </trkpt>
      <trkpt lat="43.95082" lon="-0.46736">
        <ele>66</ele>
        <time>2015-05-28T09:29:31Z</time>
      </trkpt>
      <trkpt lat="43.9508" lon="-0.46723">
        <ele>66</ele>
        <time>2015-05-28T09:29:38Z</time>
      </trkpt>
      <trkpt lat="43.95076" lon="-0.46711">
        <ele>66</ele>
        <time>2015-05-28T09:29:45Z</time>
      </trkpt>
      <trkpt lat="43.95073" lon="-0.46699">
        <ele>66</ele>
        <time>2015-05-28T09:29:51Z</time>
      </trkpt>
      <trkpt lat="43.95072" lon="-0.46685">
        <ele>66</ele>
        <time>2015-05-28T09:29:58Z</time>
      </trkpt>
      <trkpt lat="43.95071" lon="-0.46672">
        <ele>66</ele>
        <time>2015-05-28T09:30:06Z</time>
      </trkpt>
      <trkpt lat="43.95069" lon="-0.46659">
        <ele>66</ele>
        <time>2015-05-28T09:30:14Z</time>
      </trkpt>
      <trkpt lat="43.95066" lon="-0.46646">
        <ele>66</ele>
        <time>2015-05-28T09:30:21Z</time>
      </trkpt>
      <trkpt lat="43.95063" lon="-0.46634">
        <ele>66</ele>
        <time>2015-05-28T09:30:27Z</time>
      </trkpt>
      <trkpt lat="43.95061" lon="-0.46622">
        <ele>66</ele>
        <time>2015-05-28T09:30:34Z</time>
      </trkpt>
      <trkpt lat="43.95058" lon="-0.46609">
        <ele>66</ele>
        <time>2015-05-28T09:30:41Z</time>
      </trkpt>
      <trkpt lat="43.95058" lon="-0.46597">
        <ele>66</ele>
        <time>2015-05-28T09:30:48Z</time>
      </trkpt>
      <trkpt lat="43.95059" lon="-0.46583">
        <ele>66</ele>
        <time>2015-05-28T09:30:55Z</time>
      </trkpt>
      <trkpt lat="43.9506" lon="-0.46571">
        <ele>66</ele>
        <time>2015-05-28T09:31:02Z</time>
      </trkpt>
      <trkpt lat="43.9506" lon="-0.46558">
        <ele>66</ele>
        <time>2015-05-28T09:31:08Z</time>
      </trkpt>
      <trkpt lat="43.95061" lon="-0.46545">
        <ele>66</ele>
        <time>2015-05-28T09:31:17Z</time>
      </trkpt>
      <trkpt lat="43.95063" lon="-0.46532">
        <ele>66</ele>
        <time>2015-05-28T09:31:25Z</time>
      </trkpt>
      <trkpt lat="43.95064" lon="-0.46519">
        <ele>66</ele>
        <time>2015-05-28T09:31:32Z</time>
      </trkpt>
      <trkpt lat="43.95067" lon="-0.46507">
        <ele>66</ele>
        <time>2015-05-28T09:31:40Z</time>
      </trkpt>
      <trkpt lat="43.95068" lon="-0.46493">
        <ele>66</ele>
        <time>2015-05-28T09:31:48Z</time>
      </trkpt>
      <trkpt lat="43.95068" lon="-0.4648">
        <ele>66</ele>
        <time>2015-05-28T09:31:56Z</time>
      </trkpt>
      <trkpt lat="43.95065" lon="-0.46466">
        <ele>66</ele>
        <time>2015-05-28T09:32:03Z</time>
      </trkpt>
      <trkpt lat="43.95064" lon="-0.46453">
        <ele>66</ele>
        <time>2015-05-28T09:32:11Z</time>
      </trkpt>
      <trkpt lat="43.95064" lon="-0.46439">
        <ele>66</ele>
        <time>2015-05-28T09:32:20Z</time>
      </trkpt>
      <trkpt lat="43.95063" lon="-0.46427">
        <ele>66</ele>
        <time>2015-05-28T09:32:27Z</time>
      </trkpt>
      <trkpt lat="43.95062" lon="-0.46413">
        <ele>66</ele>
        <time>2015-05-28T09:32:35Z</time>
      </trkpt>
      <trkpt lat="43.95061" lon="-0.46401">
        <ele>66</ele>
        <time>2015-05-28T09:32:42Z</time>
      </trkpt>
      <trkpt lat="43.95062" lon="-0.46388">
        <ele>66</ele>
        <time>2015-05-28T09:32:49Z</time>
      </trkpt>
      <trkpt lat="43.95062" lon="-0.46376">
        <ele>66</ele>
        <time>2015-05-28T09:32:56Z</time>
      </trkpt>
      <trkpt lat="43.95063" lon="-0.46363">
        <ele>66</ele>
        <time>2015-05-28T09:33:03Z</time>
      </trkpt>
      <trkpt lat="43.95065" lon="-0.4635">
        <ele>66</ele>
        <time>2015-05-28T09:33:10Z</time>
      </trkpt>
      <trkpt lat="43.95066" lon="-0.46337">
        <ele>66</ele>
        <time>2015-05-28T09:33:18Z</time>
      </trkpt>
      <trkpt lat="43.95066" lon="-0.46324">
        <ele>66</ele>
        <time>2015-05-28T09:33:26Z</time>
      </trkpt>
      <trkpt lat="43.95066" lon="-0.46312">
        <ele>66</ele>
        <time>2015-05-28T09:33:33Z</time>
      </trkpt>
      <trkpt lat="43.95065" lon="-0.46298">
        <ele>66</ele>
        <time>2015-05-28T09:33:40Z</time>
      </trkpt>
      <trkpt lat="43.95066" lon="-0.46284">
        <ele>66</ele>
        <time>2015-05-28T09:33:47Z</time>
      </trkpt>
      <trkpt lat="43.95067" lon="-0.4627">
        <ele>66</ele>
        <time>2015-05-28T09:33:54Z</time>
      </trkpt>
      <trkpt lat="43.95066" lon="-0.46258">
        <ele>66</ele>
        <time>2015-05-28T09:34:01Z</time>
      </trkpt>
      <trkpt lat="43.95065" lon="-0.46245">
        <ele>66</ele>
        <time>2015-05-28T09:34:08Z</time>
      </trkpt>
      <trkpt lat="43.95065" lon="-0.46233">
        <ele>66</ele>
        <time>2015-05-28T09:34:16Z</time>
      </trkpt>
      <trkpt lat="43.95069" lon="-0.46222">
        <ele>66</ele>
        <time>2015-05-28T09:36:38Z</time>
      </trkpt>
      <trkpt lat="43.95078" lon="-0.46217">
        <ele>66</ele>
        <time>2015-05-28T09:36:51Z</time>
      </trkpt>
      <trkpt lat="43.95088" lon="-0.46219">
        <ele>66</ele>
        <time>2015-05-28T09:37:00Z</time>
      </trkpt>
      <trkpt lat="43.95098" lon="-0.46223">
        <ele>66</ele>
        <time>2015-05-28T09:37:08Z</time>
      </trkpt>
      <trkpt lat="43.95108" lon="-0.46224">
        <ele>66</ele>
        <time>2015-05-28T09:37:16Z</time>
      </trkpt>
      <trkpt lat="43.95117" lon="-0.46226">
        <ele>59</ele>
        <time>2015-05-28T09:37:23Z</time>
      </trkpt>
      <trkpt lat="43.95126" lon="-0.46226">
        <ele>59</ele>
        <time>2015-05-28T09:37:31Z</time>
      </trkpt>
      <trkpt lat="43.95135" lon="-0.46225">
        <ele>59</ele>
        <time>2015-05-28T09:37:38Z</time>
      </trkpt>
      <trkpt lat="43.95141" lon="-0.46215">
        <ele>59</ele>
        <time>2015-05-28T09:37:44Z</time>
      </trkpt>
      <trkpt lat="43.95144" lon="-0.46203">
        <ele>64</ele>
        <time>2015-05-28T09:37:51Z</time>
      </trkpt>
      <trkpt lat="43.95146" lon="-0.46191">
        <ele>64</ele>
        <time>2015-05-28T09:37:59Z</time>
      </trkpt>
      <trkpt lat="43.9515" lon="-0.46178">
        <ele>64</ele>
        <time>2015-05-28T09:38:06Z</time>
      </trkpt>
      <trkpt lat="43.95154" lon="-0.46165">
        <ele>64</ele>
        <time>2015-05-28T09:38:14Z</time>
      </trkpt>
      <trkpt lat="43.95154" lon="-0.46152">
        <ele>64</ele>
        <time>2015-05-28T09:38:22Z</time>
      </trkpt>
      <trkpt lat="43.95157" lon="-0.4614">
        <ele>64</ele>
        <time>2015-05-28T09:38:29Z</time>
      </trkpt>
      <trkpt lat="43.95159" lon="-0.46127">
        <ele>64</ele>
        <time>2015-05-28T09:38:37Z</time>
      </trkpt>
      <trkpt lat="43.95163" lon="-0.46114">
        <ele>64</ele>
        <time>2015-05-28T09:38:45Z</time>
      </trkpt>
      <trkpt lat="43.95163" lon="-0.46102">
        <ele>64</ele>
        <time>2015-05-28T09:38:52Z</time>
      </trkpt>
      <trkpt lat="43.95165" lon="-0.46088">
        <ele>64</ele>
        <time>2015-05-28T09:39:01Z</time>
      </trkpt>
      <trkpt lat="43.95167" lon="-0.46076">
        <ele>64</ele>
        <time>2015-05-28T09:39:08Z</time>
      </trkpt>
      <trkpt lat="43.95169" lon="-0.46063">
        <ele>64</ele>
        <time>2015-05-28T09:39:17Z</time>
      </trkpt>
      <trkpt lat="43.95168" lon="-0.4605">
        <ele>64</ele>
        <time>2015-05-28T09:39:27Z</time>
      </trkpt>
      <trkpt lat="43.95165" lon="-0.46037">
        <ele>64</ele>
        <time>2015-05-28T09:39:34Z</time>
      </trkpt>
      <trkpt lat="43.95163" lon="-0.46024">
        <ele>64</ele>
        <time>2015-05-28T09:39:41Z</time>
      </trkpt>
      <trkpt lat="43.95157" lon="-0.46014">
        <ele>64</ele>
        <time>2015-05-28T09:39:47Z</time>
      </trkpt>
      <trkpt lat="43.95154" lon="-0.46002">
        <ele>64</ele>
        <time>2015-05-28T09:39:56Z</time>
      </trkpt>
      <trkpt lat="43.9515" lon="-0.45989">
        <ele>64</ele>
        <time>2015-05-28T09:40:03Z</time>
      </trkpt>
      <trkpt lat="43.9515" lon="-0.45977">
        <ele>64</ele>
        <time>2015-05-28T09:40:13Z</time>
      </trkpt>
      <trkpt lat="43.95152" lon="-0.45964">
        <ele>64</ele>
        <time>2015-05-28T09:40:20Z</time>
      </trkpt>
      <trkpt lat="43.95155" lon="-0.45952">
        <ele>57</ele>
        <time>2015-05-28T09:40:29Z</time>
      </trkpt>
      <trkpt lat="43.95159" lon="-0.45939">
        <ele>57</ele>
        <time>2015-05-28T09:40:39Z</time>
      </trkpt>
      <trkpt lat="43.95161" lon="-0.45927">
        <ele>57</ele>
        <time>2015-05-28T09:40:45Z</time>
      </trkpt>
      <trkpt lat="43.95163" lon="-0.45915">
        <ele>57</ele>
        <time>2015-05-28T09:40:51Z</time>
      </trkpt>
      <trkpt lat="43.95163" lon="-0.45902">
        <ele>57</ele>
        <time>2015-05-28T09:40:58Z</time>
      </trkpt>
      <trkpt lat="43.95164" lon="-0.45889">
        <ele>48</ele>
        <time>2015-05-28T09:41:04Z</time>
      </trkpt>
      <trkpt lat="43.95169" lon="-0.45876">
        <ele>48</ele>
        <time>2015-05-28T09:41:13Z</time>
      </trkpt>
      <trkpt lat="43.95171" lon="-0.45863">
        <ele>48</ele>
        <time>2015-05-28T09:41:21Z</time>
      </trkpt>
      <trkpt lat="43.95171" lon="-0.4585">
        <ele>48</ele>
        <time>2015-05-28T09:41:29Z</time>
      </trkpt>
      <trkpt lat="43.95174" lon="-0.45838">
        <ele>48</ele>
        <time>2015-05-28T09:41:36Z</time>
      </trkpt>
      <trkpt lat="43.95172" lon="-0.45824">
        <ele>48</ele>
        <time>2015-05-28T09:41:45Z</time>
      </trkpt>
      <trkpt lat="43.95174" lon="-0.45811">
        <ele>48</ele>
        <time>2015-05-28T09:41:51Z</time>
      </trkpt>
      <trkpt lat="43.95176" lon="-0.45799">
        <ele>48</ele>
        <time>2015-05-28T09:41:58Z</time>
      </trkpt>
      <trkpt lat="43.95178" lon="-0.45786">
        <ele>48</ele>
        <time>2015-05-28T09:42:06Z</time>
      </trkpt>
      <trkpt lat="43.95178" lon="-0.45773">
        <ele>48</ele>
        <time>2015-05-28T09:42:14Z</time>
      </trkpt>
      <trkpt lat="43.95177" lon="-0.45759">
        <ele>48</ele>
        <time>2015-05-28T09:42:20Z</time>
      </trkpt>
      <trkpt lat="43.9518" lon="-0.45747">
        <ele>48</ele>
        <time>2015-05-28T09:42:29Z</time>
      </trkpt>
      <trkpt lat="43.95181" lon="-0.45734">
        <ele>48</ele>
        <time>2015-05-28T09:42:38Z</time>
      </trkpt>
      <trkpt lat="43.95184" lon="-0.45723">
        <ele>48</ele>
        <time>2015-05-28T09:42:45Z</time>
      </trkpt>
      <trkpt lat="43.95187" lon="-0.4571">
        <ele>42</ele>
        <time>2015-05-28T09:42:53Z</time>
      </trkpt>
      <trkpt lat="43.95192" lon="-0.45698">
        <ele>42</ele>
        <time>2015-05-28T09:43:02Z</time>
      </trkpt>
      <trkpt lat="43.95195" lon="-0.45686">
        <ele>42</ele>
        <time>2015-05-28T09:43:09Z</time>
      </trkpt>
      <trkpt lat="43.95199" lon="-0.45673">
        <ele>42</ele>
        <time>2015-05-28T09:43:16Z</time>
      </trkpt>
      <trkpt lat="43.952" lon="-0.4566">
        <ele>42</ele>
        <time>2015-05-28T09:43:24Z</time>
      </trkpt>
      <trkpt lat="43.95204" lon="-0.45648">
        <ele>42</ele>
        <time>2015-05-28T09:43:32Z</time>
      </trkpt>
      <trkpt lat="43.95206" lon="-0.45635">
        <ele>42</ele>
        <time>2015-05-28T09:43:39Z</time>
      </trkpt>
      <trkpt lat="43.95206" lon="-0.45622">
        <ele>42</ele>
        <time>2015-05-28T09:43:47Z</time>
      </trkpt>
      <trkpt lat="43.952" lon="-0.45613">
        <ele>42</ele>
        <time>2015-05-28T09:43:54Z</time>
      </trkpt>
      <trkpt lat="43.95191" lon="-0.45615">
        <ele>42</ele>
        <time>2015-05-28T09:44:02Z</time>
      </trkpt>
      <trkpt lat="43.9518" lon="-0.45613">
        <ele>48</ele>
        <time>2015-05-28T09:44:09Z</time>
      </trkpt>
      <trkpt lat="43.9517" lon="-0.45612">
        <ele>48</ele>
        <time>2015-05-28T09:44:17Z</time>
      </trkpt>
      <trkpt lat="43.95162" lon="-0.45608">
        <ele>39</ele>
        <time>2015-05-28T09:44:25Z</time>
      </trkpt>
      <trkpt lat="43.95152" lon="-0.45608">
        <ele>39</ele>
        <time>2015-05-28T09:44:32Z</time>
      </trkpt>
      <trkpt lat="43.95144" lon="-0.45612">
        <ele>39</ele>
        <time>2015-05-28T09:44:39Z</time>
      </trkpt>
      <trkpt lat="43.95133" lon="-0.45611">
        <ele>39</ele>
        <time>2015-05-28T09:44:46Z</time>
      </trkpt>
      <trkpt lat="43.95123" lon="-0.4561">
        <ele>45</ele>
        <time>2015-05-28T09:44:53Z</time>
      </trkpt>
      <trkpt lat="43.95113" lon="-0.45608">
        <ele>45</ele>
        <time>2015-05-28T09:44:59Z</time>
      </trkpt>
      <trkpt lat="43.95104" lon="-0.45606">
        <ele>45</ele>
        <time>2015-05-28T09:45:06Z</time>
      </trkpt>
      <trkpt lat="43.95095" lon="-0.45606">
        <ele>45</ele>
        <time>2015-05-28T09:45:13Z</time>
      </trkpt>
      <trkpt lat="43.95085" lon="-0.45604">
        <ele>45</ele>
        <time>2015-05-28T09:45:20Z</time>
      </trkpt>
      <trkpt lat="43.95076" lon="-0.45604">
        <ele>45</ele>
        <time>2015-05-28T09:45:27Z</time>
      </trkpt>
      <trkpt lat="43.95067" lon="-0.45603">
        <ele>45</ele>
        <time>2015-05-28T09:45:34Z</time>
      </trkpt>
      <trkpt lat="43.95058" lon="-0.456">
        <ele>45</ele>
        <time>2015-05-28T09:45:41Z</time>
      </trkpt>
      <trkpt lat="43.95048" lon="-0.45597">
        <ele>45</ele>
        <time>2015-05-28T09:45:49Z</time>
      </trkpt>
      <trkpt lat="43.95039" lon="-0.45595">
        <ele>45</ele>
        <time>2015-05-28T09:45:57Z</time>
      </trkpt>
      <trkpt lat="43.9503" lon="-0.45593">
        <ele>45</ele>
        <time>2015-05-28T09:46:04Z</time>
      </trkpt>
      <trkpt lat="43.95021" lon="-0.45591">
        <ele>45</ele>
        <time>2015-05-28T09:46:12Z</time>
      </trkpt>
      <trkpt lat="43.95011" lon="-0.45592">
        <ele>45</ele>
        <time>2015-05-28T09:46:19Z</time>
      </trkpt>
      <trkpt lat="43.95002" lon="-0.45591">
        <ele>45</ele>
        <time>2015-05-28T09:46:27Z</time>
      </trkpt>
      <trkpt lat="43.94993" lon="-0.45589">
        <ele>45</ele>
        <time>2015-05-28T09:46:35Z</time>
      </trkpt>
      <trkpt lat="43.94984" lon="-0.45586">
        <ele>45</ele>
        <time>2015-05-28T09:46:43Z</time>
      </trkpt>
      <trkpt lat="43.94974" lon="-0.45582">
        <ele>45</ele>
        <time>2015-05-28T09:46:50Z</time>
      </trkpt>
      <trkpt lat="43.94965" lon="-0.45578">
        <ele>45</ele>
        <time>2015-05-28T09:46:58Z</time>
      </trkpt>
      <trkpt lat="43.94956" lon="-0.45572">
        <ele>45</ele>
        <time>2015-05-28T09:47:06Z</time>
      </trkpt>
      <trkpt lat="43.94948" lon="-0.45567">
        <ele>45</ele>
        <time>2015-05-28T09:47:14Z</time>
      </trkpt>
      <trkpt lat="43.94939" lon="-0.45563">
        <ele>40</ele>
        <time>2015-05-28T09:47:21Z</time>
      </trkpt>
      <trkpt lat="43.9493" lon="-0.45557">
        <ele>40</ele>
        <time>2015-05-28T09:47:29Z</time>
      </trkpt>
      <trkpt lat="43.94921" lon="-0.45554">
        <ele>40</ele>
        <time>2015-05-28T09:47:36Z</time>
      </trkpt>
      <trkpt lat="43.94913" lon="-0.4555">
        <ele>40</ele>
        <time>2015-05-28T09:47:43Z</time>
      </trkpt>
      <trkpt lat="43.94904" lon="-0.45547">
        <ele>46</ele>
        <time>2015-05-28T09:47:50Z</time>
      </trkpt>
      <trkpt lat="43.94894" lon="-0.45545">
        <ele>46</ele>
        <time>2015-05-28T09:47:58Z</time>
      </trkpt>
      <trkpt lat="43.94884" lon="-0.45542">
        <ele>46</ele>
        <time>2015-05-28T09:48:06Z</time>
      </trkpt>
      <trkpt lat="43.94876" lon="-0.45538">
        <ele>46</ele>
        <time>2015-05-28T09:48:13Z</time>
      </trkpt>
      <trkpt lat="43.94867" lon="-0.45535">
        <ele>46</ele>
        <time>2015-05-28T09:48:21Z</time>
      </trkpt>
      <trkpt lat="43.94858" lon="-0.45532">
        <ele>46</ele>
        <time>2015-05-28T09:48:28Z</time>
      </trkpt>
      <trkpt lat="43.94849" lon="-0.45529">
        <ele>46</ele>
        <time>2015-05-28T09:48:37Z</time>
      </trkpt>
      <trkpt lat="43.9484" lon="-0.45526">
        <ele>51</ele>
        <time>2015-05-28T09:48:45Z</time>
      </trkpt>
      <trkpt lat="43.94831" lon="-0.45523">
        <ele>51</ele>
        <time>2015-05-28T09:48:54Z</time>
      </trkpt>
      <trkpt lat="43.94822" lon="-0.45519">
        <ele>51</ele>
        <time>2015-05-28T09:49:02Z</time>
      </trkpt>
      <trkpt lat="43.94813" lon="-0.45518">
        <ele>51</ele>
        <time>2015-05-28T09:49:11Z</time>
      </trkpt>
      <trkpt lat="43.94804" lon="-0.45513">
        <ele>51</ele>
        <time>2015-05-28T09:49:19Z</time>
      </trkpt>
      <trkpt lat="43.94795" lon="-0.45508">
        <ele>51</ele>
        <time>2015-05-28T09:49:25Z</time>
      </trkpt>
      <trkpt lat="43.94785" lon="-0.4551">
        <ele>51</ele>
        <time>2015-05-28T09:49:32Z</time>
      </trkpt>
      <trkpt lat="43.94776" lon="-0.45508">
        <ele>45</ele>
        <time>2015-05-28T09:49:41Z</time>
      </trkpt>
      <trkpt lat="43.94767" lon="-0.45504">
        <ele>45</ele>
        <time>2015-05-28T09:49:49Z</time>
      </trkpt>
      <trkpt lat="43.94758" lon="-0.455">
        <ele>45</ele>
        <time>2015-05-28T09:49:56Z</time>
      </trkpt>
      <trkpt lat="43.94749" lon="-0.45495">
        <ele>45</ele>
        <time>2015-05-28T09:50:02Z</time>
      </trkpt>
      <trkpt lat="43.9474" lon="-0.45491">
        <ele>45</ele>
        <time>2015-05-28T09:50:09Z</time>
      </trkpt>
      <trkpt lat="43.94731" lon="-0.45487">
        <ele>45</ele>
        <time>2015-05-28T09:50:16Z</time>
      </trkpt>
      <trkpt lat="43.94721" lon="-0.45484">
        <ele>45</ele>
        <time>2015-05-28T09:50:24Z</time>
      </trkpt>
      <trkpt lat="43.94712" lon="-0.4548">
        <ele>45</ele>
        <time>2015-05-28T09:50:32Z</time>
      </trkpt>
      <trkpt lat="43.94702" lon="-0.45477">
        <ele>45</ele>
        <time>2015-05-28T09:50:40Z</time>
      </trkpt>
      <trkpt lat="43.94692" lon="-0.45476">
        <ele>45</ele>
        <time>2015-05-28T09:50:48Z</time>
      </trkpt>
      <trkpt lat="43.94684" lon="-0.45471">
        <ele>45</ele>
        <time>2015-05-28T09:50:56Z</time>
      </trkpt>
      <trkpt lat="43.94675" lon="-0.45468">
        <ele>45</ele>
        <time>2015-05-28T09:51:05Z</time>
      </trkpt>
      <trkpt lat="43.94666" lon="-0.45464">
        <ele>45</ele>
        <time>2015-05-28T09:51:13Z</time>
      </trkpt>
      <trkpt lat="43.94656" lon="-0.45459">
        <ele>45</ele>
        <time>2015-05-28T09:51:19Z</time>
      </trkpt>
      <trkpt lat="43.94647" lon="-0.45457">
        <ele>52</ele>
        <time>2015-05-28T09:51:27Z</time>
      </trkpt>
      <trkpt lat="43.94637" lon="-0.45454">
        <ele>52</ele>
        <time>2015-05-28T09:51:37Z</time>
      </trkpt>
      <trkpt lat="43.94628" lon="-0.45449">
        <ele>46</ele>
        <time>2015-05-28T09:51:46Z</time>
      </trkpt>
      <trkpt lat="43.94619" lon="-0.45445">
        <ele>46</ele>
        <time>2015-05-28T09:51:54Z</time>
      </trkpt>
      <trkpt lat="43.9461" lon="-0.45444">
        <ele>53</ele>
        <time>2015-05-28T09:52:01Z</time>
      </trkpt>
      <trkpt lat="43.94601" lon="-0.45439">
        <ele>53</ele>
        <time>2015-05-28T09:52:10Z</time>
      </trkpt>
      <trkpt lat="43.94592" lon="-0.45433">
        <ele>53</ele>
        <time>2015-05-28T09:52:19Z</time>
      </trkpt>
      <trkpt lat="43.94582" lon="-0.45427">
        <ele>53</ele>
        <time>2015-05-28T09:52:28Z</time>
      </trkpt>
      <trkpt lat="43.94573" lon="-0.45424">
        <ele>53</ele>
        <time>2015-05-28T09:52:34Z</time>
      </trkpt>
      <trkpt lat="43.94565" lon="-0.45421">
        <ele>53</ele>
        <time>2015-05-28T09:52:40Z</time>
      </trkpt>
      <trkpt lat="43.94556" lon="-0.45417">
        <ele>53</ele>
        <time>2015-05-28T09:52:47Z</time>
      </trkpt>
      <trkpt lat="43.94547" lon="-0.45413">
        <ele>53</ele>
        <time>2015-05-28T09:52:55Z</time>
      </trkpt>
      <trkpt lat="43.94538" lon="-0.4541">
        <ele>53</ele>
        <time>2015-05-28T09:53:03Z</time>
      </trkpt>
      <trkpt lat="43.94529" lon="-0.45406">
        <ele>53</ele>
        <time>2015-05-28T09:53:09Z</time>
      </trkpt>
      <trkpt lat="43.94519" lon="-0.45403">
        <ele>53</ele>
        <time>2015-05-28T09:53:17Z</time>
      </trkpt>
      <trkpt lat="43.9451" lon="-0.454">
        <ele>53</ele>
        <time>2015-05-28T09:53:25Z</time>
      </trkpt>
      <trkpt lat="43.94501" lon="-0.45396">
        <ele>53</ele>
        <time>2015-05-28T09:53:30Z</time>
      </trkpt>
      <trkpt lat="43.94493" lon="-0.45393">
        <ele>53</ele>
        <time>2015-05-28T09:53:36Z</time>
      </trkpt>
      <trkpt lat="43.94484" lon="-0.4539">
        <ele>53</ele>
        <time>2015-05-28T09:53:43Z</time>
      </trkpt>
      <trkpt lat="43.94475" lon="-0.45383">
        <ele>46</ele>
        <time>2015-05-28T09:53:53Z</time>
      </trkpt>
      <trkpt lat="43.94467" lon="-0.45379">
        <ele>46</ele>
        <time>2015-05-28T09:54:01Z</time>
      </trkpt>
      <trkpt lat="43.94458" lon="-0.45374">
        <ele>46</ele>
        <time>2015-05-28T09:54:07Z</time>
      </trkpt>
      <trkpt lat="43.94449" lon="-0.4537">
        <ele>46</ele>
        <time>2015-05-28T09:54:13Z</time>
      </trkpt>
      <trkpt lat="43.9444" lon="-0.45364">
        <ele>46</ele>
        <time>2015-05-28T09:54:20Z</time>
      </trkpt>
      <trkpt lat="43.94431" lon="-0.45361">
        <ele>46</ele>
        <time>2015-05-28T09:54:26Z</time>
      </trkpt>
      <trkpt lat="43.94423" lon="-0.45356">
        <ele>46</ele>
        <time>2015-05-28T09:54:33Z</time>
      </trkpt>
      <trkpt lat="43.94415" lon="-0.45349">
        <ele>46</ele>
        <time>2015-05-28T09:54:40Z</time>
      </trkpt>
      <trkpt lat="43.94405" lon="-0.45343">
        <ele>46</ele>
        <time>2015-05-28T09:54:48Z</time>
      </trkpt>
      <trkpt lat="43.94397" lon="-0.45337">
        <ele>46</ele>
        <time>2015-05-28T09:54:56Z</time>
      </trkpt>
      <trkpt lat="43.94388" lon="-0.45331">
        <ele>46</ele>
        <time>2015-05-28T09:55:02Z</time>
      </trkpt>
      <trkpt lat="43.9438" lon="-0.45327">
        <ele>46</ele>
        <time>2015-05-28T09:55:09Z</time>
      </trkpt>
      <trkpt lat="43.94372" lon="-0.45324">
        <ele>46</ele>
        <time>2015-05-28T09:55:15Z</time>
      </trkpt>
      <trkpt lat="43.94362" lon="-0.45319">
        <ele>46</ele>
        <time>2015-05-28T09:55:30Z</time>
      </trkpt>
      <trkpt lat="43.94353" lon="-0.45317">
        <ele>46</ele>
        <time>2015-05-28T09:56:01Z</time>
      </trkpt>
      <trkpt lat="43.94348" lon="-0.45307">
        <ele>46</ele>
        <time>2015-05-28T09:56:09Z</time>
      </trkpt>
      <trkpt lat="43.94344" lon="-0.45297">
        <ele>46</ele>
        <time>2015-05-28T09:56:17Z</time>
      </trkpt>
      <trkpt lat="43.94336" lon="-0.45286">
        <ele>46</ele>
        <time>2015-05-28T09:56:26Z</time>
      </trkpt>
      <trkpt lat="43.94331" lon="-0.45276">
        <ele>46</ele>
        <time>2015-05-28T09:56:34Z</time>
      </trkpt>
      <trkpt lat="43.94325" lon="-0.45267">
        <ele>46</ele>
        <time>2015-05-28T09:56:42Z</time>
      </trkpt>
      <trkpt lat="43.9432" lon="-0.45256">
        <ele>46</ele>
        <time>2015-05-28T09:56:49Z</time>
      </trkpt>
      <trkpt lat="43.94313" lon="-0.45245">
        <ele>46</ele>
        <time>2015-05-28T09:56:57Z</time>
      </trkpt>
      <trkpt lat="43.94308" lon="-0.45235">
        <ele>46</ele>
        <time>2015-05-28T09:57:04Z</time>
      </trkpt>
      <trkpt lat="43.94301" lon="-0.45225">
        <ele>46</ele>
        <time>2015-05-28T09:57:12Z</time>
      </trkpt>
      <trkpt lat="43.94294" lon="-0.45215">
        <ele>46</ele>
        <time>2015-05-28T09:57:20Z</time>
      </trkpt>
      <trkpt lat="43.94287" lon="-0.45208">
        <ele>39</ele>
        <time>2015-05-28T09:57:27Z</time>
      </trkpt>
      <trkpt lat="43.94279" lon="-0.45201">
        <ele>39</ele>
        <time>2015-05-28T09:57:34Z</time>
      </trkpt>
      <trkpt lat="43.94272" lon="-0.45195">
        <ele>39</ele>
        <time>2015-05-28T09:57:43Z</time>
      </trkpt>
      <trkpt lat="43.94263" lon="-0.45188">
        <ele>39</ele>
        <time>2015-05-28T09:57:50Z</time>
      </trkpt>
      <trkpt lat="43.94256" lon="-0.45181">
        <ele>39</ele>
        <time>2015-05-28T09:57:56Z</time>
      </trkpt>
      <trkpt lat="43.94248" lon="-0.45174">
        <ele>39</ele>
        <time>2015-05-28T09:58:03Z</time>
      </trkpt>
      <trkpt lat="43.94239" lon="-0.45166">
        <ele>39</ele>
        <time>2015-05-28T09:58:10Z</time>
      </trkpt>
      <trkpt lat="43.94232" lon="-0.45159">
        <ele>39</ele>
        <time>2015-05-28T09:58:17Z</time>
      </trkpt>
      <trkpt lat="43.94224" lon="-0.45151">
        <ele>39</ele>
        <time>2015-05-28T09:58:26Z</time>
      </trkpt>
      <trkpt lat="43.94215" lon="-0.45144">
        <ele>39</ele>
        <time>2015-05-28T09:58:33Z</time>
      </trkpt>
      <trkpt lat="43.94205" lon="-0.45142">
        <ele>51</ele>
        <time>2015-05-28T09:58:41Z</time>
      </trkpt>
      <trkpt lat="43.94198" lon="-0.45133">
        <ele>51</ele>
        <time>2015-05-28T09:58:49Z</time>
      </trkpt>
      <trkpt lat="43.94191" lon="-0.45125">
        <ele>51</ele>
        <time>2015-05-28T09:58:58Z</time>
      </trkpt>
      <trkpt lat="43.94185" lon="-0.45115">
        <ele>51</ele>
        <time>2015-05-28T09:59:07Z</time>
      </trkpt>
      <trkpt lat="43.94178" lon="-0.45105">
        <ele>51</ele>
        <time>2015-05-28T09:59:16Z</time>
      </trkpt>
      <trkpt lat="43.94175" lon="-0.45094">
        <ele>45</ele>
        <time>2015-05-28T09:59:24Z</time>
      </trkpt>
      <trkpt lat="43.94171" lon="-0.45083">
        <ele>45</ele>
        <time>2015-05-28T09:59:33Z</time>
      </trkpt>
      <trkpt lat="43.94168" lon="-0.4507">
        <ele>45</ele>
        <time>2015-05-28T09:59:42Z</time>
      </trkpt>
      <trkpt lat="43.94163" lon="-0.45059">
        <ele>45</ele>
        <time>2015-05-28T09:59:50Z</time>
      </trkpt>
      <trkpt lat="43.94159" lon="-0.45048">
        <ele>45</ele>
        <time>2015-05-28T09:59:58Z</time>
      </trkpt>
      <trkpt lat="43.94154" lon="-0.45035">
        <ele>51</ele>
        <time>2015-05-28T10:00:08Z</time>
      </trkpt>
      <trkpt lat="43.94151" lon="-0.45023">
        <ele>51</ele>
        <time>2015-05-28T10:00:17Z</time>
      </trkpt>
      <trkpt lat="43.94146" lon="-0.4501">
        <ele>51</ele>
        <time>2015-05-28T10:00:27Z</time>
      </trkpt>
      <trkpt lat="43.94143" lon="-0.44998">
        <ele>51</ele>
        <time>2015-05-28T10:00:36Z</time>
      </trkpt>
      <trkpt lat="43.9414" lon="-0.44986">
        <ele>51</ele>
        <time>2015-05-28T10:00:44Z</time>
      </trkpt>
      <trkpt lat="43.94137" lon="-0.44974">
        <ele>51</ele>
        <time>2015-05-28T10:00:54Z</time>
      </trkpt>
      <trkpt lat="43.94127" lon="-0.44972">
        <ele>51</ele>
        <time>2015-05-28T10:02:01Z</time>
      </trkpt>
    </trkseg>
  </trk>
</gpx>